Observation data for Palo Duro Canyon State Park Floor on 09/12/2017      Previous  Date  Next       Current Mesonet Observations  Soil Data  Daily Summary Page  Observations in Plain Language
KPD2 120500Z 00000KT 19/12 A3012 RMK A01 T01930118  RH  062%=      5-min Rain = 0
KPD2 120501Z 00000KT 19/12 A3012 RMK A01 T01920118  RH  062%=      5-min Rain = 0
KPD2 120502Z 00000KT 19/12 A3012 RMK A01 T01910118  RH  063%=      5-min Rain = 0
KPD2 120503Z 00000KT 19/12 A3012 RMK A01 T01900118  RH  063%=      5-min Rain = 0
KPD2 120504Z 00000KT 19/12 A3012 RMK A01 T01880118  RH  063%=      5-min Rain = 0
KPD2 120505Z 00000KT 19/12 A3012 RMK A01 T01880118  RH  064%=      5-min Rain = 0
KPD2 120506Z 00000KT 19/12 A3012 RMK A01 T01870117  RH  064%=      5-min Rain = 0
KPD2 120507Z 06000KT 19/12 A3012 RMK A01 T01870117  RH  064%=      5-min Rain = 0
KPD2 120508Z 00000KT 19/12 A3012 RMK A01 T01870118  RH  064%=      5-min Rain = 0
KPD2 120509Z 12001KT 19/12 A3012 RMK A01 T01860118  RH  064%=      5-min Rain = 0
KPD2 120510Z 12001KT 19/12 A3012 RMK A01 T01860117  RH  064%=      5-min Rain = 0
KPD2 120511Z 12001KT 19/12 A3012 RMK A01 T01860116  RH  064%=      5-min Rain = 0
KPD2 120512Z 12002KT 19/12 A3012 RMK A01 T01870115  RH  063%=      5-min Rain = 0
KPD2 120513Z 12002KT 19/12 A3012 RMK A01 T01880116  RH  063%=      5-min Rain = 0
KPD2 120514Z 13002KT 19/12 A3012 RMK A01 T01890116  RH  062%=      5-min Rain = 0
KPD2 120515Z 14001KT 19/12 A3012 RMK A01 T01890116  RH  062%=      5-min Rain = 0
KPD2 120516Z 14001KT 19/12 A3012 RMK A01 T01890115  RH  062%=      5-min Rain = 0
KPD2 120517Z 15000KT 19/12 A3012 RMK A01 T01880115  RH  062%=      5-min Rain = 0
KPD2 120518Z 15000KT 19/12 A3012 RMK A01 T01880116  RH  063%=      5-min Rain = 0
KPD2 120519Z 14000KT 19/12 A3012 RMK A01 T01880116  RH  063%=      5-min Rain = 0
KPD2 120520Z 14000KT 19/12 A3012 RMK A01 T01880116  RH  063%=      5-min Rain = 0
KPD2 120521Z 12001KT 19/12 A3012 RMK A01 T01880116  RH  063%=      5-min Rain = 0
KPD2 120522Z 00000KT 19/12 A3012 RMK A01 T01880116  RH  063%=      5-min Rain = 0
KPD2 120523Z 00000KT 19/12 A3012 RMK A01 T01870117  RH  063%=      5-min Rain = 0
KPD2 120524Z 00000KT 19/12 A3012 RMK A01 T01870117  RH  064%=      5-min Rain = 0
KPD2 120525Z 00000KT 19/12 A3012 RMK A01 T01860116  RH  064%=      5-min Rain = 0
KPD2 120526Z 00000KT 19/12 A3012 RMK A01 T01860117  RH  064%=      5-min Rain = 0
KPD2 120527Z 00000KT 19/12 A3012 RMK A01 T01850117  RH  064%=      5-min Rain = 0
KPD2 120528Z 00000KT 19/12 A3012 RMK A01 T01850117  RH  065%=      5-min Rain = 0
KPD2 120529Z 00000KT 18/12 A3012 RMK A01 T01840117  RH  065%=      5-min Rain = 0
KPD2 120530Z 00000KT 18/12 A3012 RMK A01 T01840117  RH  065%=      5-min Rain = 0
KPD2 120531Z 00000KT 18/12 A3012 RMK A01 T01830117  RH  065%=      5-min Rain = 0
KPD2 120532Z 00000KT 18/12 A3012 RMK A01 T01830116  RH  065%=      5-min Rain = 0
KPD2 120533Z 00000KT 18/12 A3012 RMK A01 T01820116  RH  065%=      5-min Rain = 0
KPD2 120534Z 05000KT 18/12 A3012 RMK A01 T01820116  RH  065%=      5-min Rain = 0
KPD2 120535Z 05000KT 18/12 A3012 RMK A01 T01820117  RH  066%=      5-min Rain = 0
KPD2 120536Z 05000KT 18/12 A3012 RMK A01 T01820116  RH  066%=      5-min Rain = 0
KPD2 120537Z 05000KT 18/12 A3012 RMK A01 T01820116  RH  065%=      5-min Rain = 0
KPD2 120538Z 00000KT 18/12 A3012 RMK A01 T01820116  RH  065%=      5-min Rain = 0
KPD2 120539Z 00000KT 18/12 A3012 RMK A01 T01830116  RH  065%=      5-min Rain = 0
KPD2 120540Z 00000KT 18/12 A3012 RMK A01 T01840116  RH  065%=      5-min Rain = 0
KPD2 120541Z 00000KT 18/12 A3012 RMK A01 T01840116  RH  065%=      5-min Rain = 0
KPD2 120542Z 00000KT 18/12 A3012 RMK A01 T01840116  RH  065%=      5-min Rain = 0
KPD2 120543Z 00000KT 18/12 A3012 RMK A01 T01830116  RH  065%=      5-min Rain = 0
KPD2 120544Z 00000KT 18/12 A3012 RMK A01 T01830116  RH  065%=      5-min Rain = 0
KPD2 120545Z 00000KT 18/12 A3012 RMK A01 T01830116  RH  065%=      5-min Rain = 0
KPD2 120546Z 00000KT 18/12 A3012 RMK A01 T01830116  RH  065%=      5-min Rain = 0
KPD2 120547Z 00000KT 18/12 A3012 RMK A01 T01820116  RH  065%=      5-min Rain = 0
KPD2 120548Z 05000KT 18/12 A3012 RMK A01 T01810115  RH  065%=      5-min Rain = 0
KPD2 120549Z 05001KT 18/12 A3012 RMK A01 T01800116  RH  066%=      5-min Rain = 0
KPD2 120550Z 05001KT 18/12 A3012 RMK A01 T01800115  RH  066%=      5-min Rain = 0
KPD2 120551Z 05001KT 18/12 A3012 RMK A01 T01790115  RH  066%=      5-min Rain = 0
KPD2 120552Z 05000KT 18/12 A3012 RMK A01 T01790116  RH  067%=      5-min Rain = 0
KPD2 120553Z 00000KT 18/12 A3012 RMK A01 T01780116  RH  067%=      5-min Rain = 0
KPD2 120554Z 00000KT 18/12 A3012 RMK A01 T01770116  RH  067%=      5-min Rain = 0
KPD2 120555Z 00000KT 18/12 A3012 RMK A01 T01760116  RH  068%=      5-min Rain = 0
KPD2 120556Z 00000KT 18/12 A3012 RMK A01 T01760116  RH  068%=      5-min Rain = 0
KPD2 120557Z 00000KT 18/12 A3012 RMK A01 T01750116  RH  068%=      5-min Rain = 0
KPD2 120558Z 00000KT 18/12 A3012 RMK A01 T01750116  RH  068%=      5-min Rain = 0
KPD2 120559Z 00000KT 17/12 A3012 RMK A01 T01740115  RH  068%=      5-min Rain = 0
KPD2 120600Z 05000KT 17/11 A3012 RMK A01 T01740114  RH  068%=      5-min Rain = 0
KPD2 120601Z 05000KT 17/12 A3012 RMK A01 T01730115  RH  068%=      5-min Rain = 0
KPD2 120602Z 05001KT 17/12 A3012 RMK A01 T01730115  RH  069%=      5-min Rain = 0
KPD2 120603Z 31001KT 17/12 A3012 RMK A01 T01730116  RH  069%=      5-min Rain = 0
KPD2 120604Z 31002KT 17/12 A3012 RMK A01 T01730116  RH  069%=      5-min Rain = 0
KPD2 120605Z 30002KT 17/12 A3011 RMK A01 T01730116  RH  069%=      5-min Rain = 0
KPD2 120606Z 29002KT 17/12 A3011 RMK A01 T01720116  RH  069%=      5-min Rain = 0
KPD2 120607Z 29002KT 17/12 A3011 RMK A01 T01720116  RH  069%=      5-min Rain = 0
KPD2 120608Z 29002KT 17/12 A3011 RMK A01 T01720115  RH  070%=      5-min Rain = 0
KPD2 120609Z 30002KT 17/12 A3011 RMK A01 T01710116  RH  070%=      5-min Rain = 0
KPD2 120610Z 30002KT 17/12 A3011 RMK A01 T01700115  RH  070%=      5-min Rain = 0
KPD2 120611Z 30002KT 17/12 A3011 RMK A01 T01710116  RH  070%=      5-min Rain = 0
KPD2 120612Z 30001KT 17/12 A3011 RMK A01 T01700115  RH  070%=      5-min Rain = 0
KPD2 120613Z 30001KT 17/12 A3011 RMK A01 T01700116  RH  070%=      5-min Rain = 0
KPD2 120614Z 30001KT 17/12 A3011 RMK A01 T01690115  RH  070%=      5-min Rain = 0
KPD2 120615Z 30001KT 17/12 A3011 RMK A01 T01700116  RH  070%=      5-min Rain = 0
KPD2 120616Z 30001KT 17/12 A3011 RMK A01 T01690115  RH  071%=      5-min Rain = 0
KPD2 120617Z 29002KT 17/12 A3011 RMK A01 T01690115  RH  071%=      5-min Rain = 0
KPD2 120618Z 29002KT 17/12 A3011 RMK A01 T01690116  RH  071%=      5-min Rain = 0
KPD2 120619Z 29002KT 17/12 A3011 RMK A01 T01680115  RH  071%=      5-min Rain = 0
KPD2 120620Z 30001KT 17/12 A3011 RMK A01 T01690116  RH  071%=      5-min Rain = 0
KPD2 120621Z 30001KT 17/12 A3011 RMK A01 T01690116  RH  071%=      5-min Rain = 0
KPD2 120622Z 30001KT 17/12 A3011 RMK A01 T01690116  RH  071%=      5-min Rain = 0
KPD2 120623Z 30001KT 17/12 A3011 RMK A01 T01690117  RH  071%=      5-min Rain = 0
KPD2 120624Z 30001KT 17/12 A3011 RMK A01 T01700117  RH  071%=      5-min Rain = 0
KPD2 120625Z 30001KT 17/12 A3011 RMK A01 T01690116  RH  071%=      5-min Rain = 0
KPD2 120626Z 30001KT 17/12 A3011 RMK A01 T01690116  RH  071%=      5-min Rain = 0
KPD2 120627Z 30001KT 17/12 A3011 RMK A01 T01690116  RH  071%=      5-min Rain = 0
KPD2 120628Z 28001KT 17/12 A3011 RMK A01 T01690116  RH  071%=      5-min Rain = 0
KPD2 120629Z 27002KT 17/11 A3011 RMK A01 T01680114  RH  070%=      5-min Rain = 0
KPD2 120630Z 27002KT 17/12 A3011 RMK A01 T01680115  RH  071%=      5-min Rain = 0
KPD2 120631Z 27002KT 17/12 A3011 RMK A01 T01680115  RH  071%=      5-min Rain = 0
KPD2 120632Z 27001KT 17/12 A3011 RMK A01 T01680115  RH  071%=      5-min Rain = 0
KPD2 120633Z 27000KT 17/12 A3011 RMK A01 T01670116  RH  072%=      5-min Rain = 0
KPD2 120634Z 00000KT 17/12 A3011 RMK A01 T01670115  RH  072%=      5-min Rain = 0
KPD2 120635Z 00000KT 17/12 A3011 RMK A01 T01660115  RH  072%=      5-min Rain = 0
KPD2 120636Z 29000KT 17/12 A3011 RMK A01 T01660116  RH  072%=      5-min Rain = 0
KPD2 120637Z 29001KT 17/12 A3011 RMK A01 T01650115  RH  072%=      5-min Rain = 0
KPD2 120638Z 28001KT 17/12 A3011 RMK A01 T01650115  RH  072%=      5-min Rain = 0
KPD2 120639Z 28002KT 16/12 A3011 RMK A01 T01640115  RH  073%=      5-min Rain = 0
KPD2 120640Z 29002KT 16/12 A3011 RMK A01 T01640115  RH  073%=      5-min Rain = 0
KPD2 120641Z 29001KT 16/12 A3011 RMK A01 T01640115  RH  072%=      5-min Rain = 0
KPD2 120642Z 29001KT 17/12 A3011 RMK A01 T01650115  RH  072%=      5-min Rain = 0
KPD2 120643Z 29001KT 17/12 A3011 RMK A01 T01650115  RH  072%=      5-min Rain = 0
KPD2 120644Z 29001KT 17/12 A3011 RMK A01 T01650115  RH  072%=      5-min Rain = 0
KPD2 120645Z 30001KT 16/12 A3011 RMK A01 T01640115  RH  072%=      5-min Rain = 0
KPD2 120646Z 31001KT 16/12 A3011 RMK A01 T01640115  RH  072%=      5-min Rain = 0
KPD2 120647Z 31001KT 17/12 A3011 RMK A01 T01650115  RH  073%=      5-min Rain = 0
KPD2 120648Z 31002KT 17/12 A3011 RMK A01 T01650116  RH  072%=      5-min Rain = 0
KPD2 120649Z 31002KT 17/12 A3011 RMK A01 T01660116  RH  072%=      5-min Rain = 0
KPD2 120650Z 31001KT 17/12 A3011 RMK A01 T01670116  RH  072%=      5-min Rain = 0
KPD2 120651Z 30001KT 17/12 A3011 RMK A01 T01680116  RH  072%=      5-min Rain = 0
KPD2 120652Z 30001KT 17/12 A3011 RMK A01 T01680116  RH  071%=      5-min Rain = 0
KPD2 120653Z 31001KT 17/12 A3011 RMK A01 T01680116  RH  071%=      5-min Rain = 0
KPD2 120654Z 30001KT 17/12 A3011 RMK A01 T01680116  RH  071%=      5-min Rain = 0
KPD2 120655Z 31001KT 17/12 A3011 RMK A01 T01680116  RH  071%=      5-min Rain = 0
KPD2 120656Z 31001KT 17/12 A3011 RMK A01 T01680116  RH  071%=      5-min Rain = 0
KPD2 120657Z 29002KT 17/12 A3011 RMK A01 T01680116  RH  071%=      5-min Rain = 0
KPD2 120658Z 30002KT 17/12 A3011 RMK A01 T01680116  RH  071%=      5-min Rain = 0
KPD2 120659Z 30002KT 17/12 A3011 RMK A01 T01680116  RH  071%=      5-min Rain = 0
KPD2 120700Z 28002KT 17/12 A3011 RMK A01 T01690116  RH  071%=      5-min Rain = 0
KPD2 120701Z 25001KT 17/12 A3011 RMK A01 T01690116  RH  071%=      5-min Rain = 0
KPD2 120702Z 25001KT 17/12 A3011 RMK A01 T01690115  RH  070%=      5-min Rain = 0
KPD2 120703Z 26002KT 17/12 A3011 RMK A01 T01690115  RH  070%=      5-min Rain = 0
KPD2 120704Z 26002KT 17/12 A3011 RMK A01 T01690115  RH  070%=      5-min Rain = 0
KPD2 120705Z 27001KT 17/12 A3011 RMK A01 T01690115  RH  071%=      5-min Rain = 0
KPD2 120706Z 26000KT 17/12 A3011 RMK A01 T01690115  RH  070%=      5-min Rain = 0
KPD2 120707Z 00000KT 17/12 A3011 RMK A01 T01700115  RH  070%=      5-min Rain = 0
KPD2 120708Z 25000KT 17/12 A3011 RMK A01 T01700115  RH  070%=      5-min Rain = 0
KPD2 120709Z 25000KT 17/12 A3011 RMK A01 T01700115  RH  070%=      5-min Rain = 0
KPD2 120710Z 26000KT 17/12 A3011 RMK A01 T01710115  RH  070%=      5-min Rain = 0
KPD2 120711Z 26002KT 17/12 A3011 RMK A01 T01710115  RH  070%=      5-min Rain = 0
KPD2 120712Z 25002KT 17/12 A3011 RMK A01 T01710115  RH  069%=      5-min Rain = 0
KPD2 120713Z 25002KT 17/12 A3011 RMK A01 T01710115  RH  069%=      5-min Rain = 0
KPD2 120714Z 25001KT 17/11 A3011 RMK A01 T01700114  RH  069%=      5-min Rain = 0
KPD2 120715Z 26000KT 17/12 A3011 RMK A01 T01700115  RH  070%=      5-min Rain = 0
KPD2 120716Z 27000KT 17/12 A3011 RMK A01 T01680115  RH  071%=      5-min Rain = 0
KPD2 120717Z 36000KT 17/11 A3011 RMK A01 T01670114  RH  071%=      5-min Rain = 0
KPD2 120718Z 00001KT 17/11 A3011 RMK A01 T01660114  RH  071%=      5-min Rain = 0
KPD2 120719Z 36001KT 17/11 A3011 RMK A01 T01650114  RH  072%=      5-min Rain = 0
KPD2 120720Z 35001KT 17/11 A3011 RMK A01 T01650114  RH  072%=      5-min Rain = 0
KPD2 120721Z 35002KT 16/11 A3011 RMK A01 T01640114  RH  072%=      5-min Rain = 0
KPD2 120722Z 34002KT 16/11 A3011 RMK A01 T01630113  RH  073%=      5-min Rain = 0
KPD2 120723Z 35002KT 16/11 A3011 RMK A01 T01620114  RH  073%=      5-min Rain = 0
KPD2 120724Z 36002KT 16/11 A3011 RMK A01 T01610113  RH  073%=      5-min Rain = 0
KPD2 120725Z 35002KT 16/11 A3011 RMK A01 T01610114  RH  074%=      5-min Rain = 0
KPD2 120726Z 34003KT 16/11 A3011 RMK A01 T01600114  RH  074%=      5-min Rain = 0
KPD2 120727Z 33002KT 16/11 A3011 RMK A01 T01600114  RH  074%=      5-min Rain = 0
KPD2 120728Z 33002KT 16/11 A3011 RMK A01 T01600114  RH  074%=      5-min Rain = 0
KPD2 120729Z 32002KT 16/11 A3011 RMK A01 T01600114  RH  074%=      5-min Rain = 0
KPD2 120730Z 30002KT 16/12 A3011 RMK A01 T01610115  RH  074%=      5-min Rain = 0
KPD2 120731Z 30003KT 16/11 A3011 RMK A01 T01620114  RH  073%=      5-min Rain = 0
KPD2 120732Z 31003KT 16/11 A3011 RMK A01 T01620114  RH  073%=      5-min Rain = 0
KPD2 120733Z 31003KT 16/12 A3011 RMK A01 T01630115  RH  073%=      5-min Rain = 0
KPD2 120734Z 31002KT 16/12 A3011 RMK A01 T01630115  RH  073%=      5-min Rain = 0
KPD2 120735Z 30002KT 16/12 A3011 RMK A01 T01630115  RH  073%=      5-min Rain = 0
KPD2 120736Z 29002KT 16/12 A3011 RMK A01 T01630115  RH  073%=      5-min Rain = 0
KPD2 120737Z 29002KT 16/11 A3011 RMK A01 T01630114  RH  073%=      5-min Rain = 0
KPD2 120738Z 28002KT 16/12 A3011 RMK A01 T01630115  RH  073%=      5-min Rain = 0
KPD2 120739Z 28002KT 16/11 A3011 RMK A01 T01630114  RH  073%=      5-min Rain = 0
KPD2 120740Z 28001KT 16/11 A301 RMK A01 T01620114  RH  073%=      5-min Rain = 0
KPD2 120741Z 26002KT 16/11 A301 RMK A01 T01620114  RH  073%=      5-min Rain = 0
KPD2 120742Z 25002KT 16/11 A301 RMK A01 T01620114  RH  073%=      5-min Rain = 0
KPD2 120743Z 26002KT 16/11 A301 RMK A01 T01610113  RH  073%=      5-min Rain = 0
KPD2 120744Z 27001KT 16/11 A301 RMK A01 T01600113  RH  074%=      5-min Rain = 0
KPD2 120745Z 32001KT 16/11 A301 RMK A01 T01590113  RH  074%=      5-min Rain = 0
KPD2 120746Z 34002KT 16/11 A301 RMK A01 T01570113  RH  075%=      5-min Rain = 0
KPD2 120747Z 33002KT 16/11 A301 RMK A01 T01560113  RH  075%=      5-min Rain = 0
KPD2 120748Z 32002KT 16/11 A301 RMK A01 T01560113  RH  076%=      5-min Rain = 0
KPD2 120749Z 32002KT 16/11 A301 RMK A01 T01560113  RH  076%=      5-min Rain = 0
KPD2 120750Z 32002KT 16/11 A301 RMK A01 T01550113  RH  076%=      5-min Rain = 0
KPD2 120751Z 33002KT 16/11 A301 RMK A01 T01560114  RH  076%=      5-min Rain = 0
KPD2 120752Z 31002KT 16/11 A301 RMK A01 T01550113  RH  076%=      5-min Rain = 0
KPD2 120753Z 31001KT 16/11 A301 RMK A01 T01550113  RH  076%=      5-min Rain = 0
KPD2 120754Z 31002KT 15/11 A301 RMK A01 T01540114  RH  077%=      5-min Rain = 0
KPD2 120755Z 31002KT 16/11 A301 RMK A01 T01550114  RH  077%=      5-min Rain = 0
KPD2 120756Z 31003KT 16/12 A301 RMK A01 T01560115  RH  076%=      5-min Rain = 0
KPD2 120757Z 32003KT 16/12 A301 RMK A01 T01570115  RH  076%=      5-min Rain = 0
KPD2 120758Z 31002KT 16/11 A301 RMK A01 T01570114  RH  076%=      5-min Rain = 0
KPD2 120759Z 31001KT 16/11 A301 RMK A01 T01570114  RH  076%=      5-min Rain = 0
KPD2 120800Z 30001KT 16/11 A301 RMK A01 T01570114  RH  075%=      5-min Rain = 0
KPD2 120801Z 30001KT 16/11 A301 RMK A01 T01580114  RH  075%=      5-min Rain = 0
KPD2 120802Z 28001KT 16/11 A301 RMK A01 T01580114  RH  075%=      5-min Rain = 0
KPD2 120803Z 29001KT 16/12 A301 RMK A01 T01590115  RH  075%=      5-min Rain = 0
KPD2 120804Z 29001KT 16/12 A301 RMK A01 T01590115  RH  075%=      5-min Rain = 0
KPD2 120805Z 28001KT 16/11 A301 RMK A01 T01590114  RH  075%=      5-min Rain = 0
KPD2 120806Z 29002KT 16/12 A301 RMK A01 T01590115  RH  075%=      5-min Rain = 0
KPD2 120807Z 29002KT 16/12 A301 RMK A01 T01590115  RH  075%=      5-min Rain = 0
KPD2 120808Z 30002KT 16/12 A301 RMK A01 T01590115  RH  075%=      5-min Rain = 0
KPD2 120809Z 30002KT 16/12 A301 RMK A01 T01590115  RH  075%=      5-min Rain = 0
KPD2 120810Z 30003KT 16/11 A301 RMK A01 T01590114  RH  075%=      5-min Rain = 0
KPD2 120811Z 31002KT 16/11 A301 RMK A01 T01590114  RH  075%=      5-min Rain = 0
KPD2 120812Z 31002KT 16/11 A301 RMK A01 T01580114  RH  075%=      5-min Rain = 0
KPD2 120813Z 31003KT 16/11 A301 RMK A01 T01570114  RH  075%=      5-min Rain = 0
KPD2 120814Z 32002KT 16/11 A301 RMK A01 T01570114  RH  076%=      5-min Rain = 0
KPD2 120815Z 33001KT 16/11 A301 RMK A01 T01560114  RH  076%=      5-min Rain = 0
KPD2 120816Z 33002KT 16/11 A301 RMK A01 T01560114  RH  076%=      5-min Rain = 0
KPD2 120817Z 33002KT 16/11 A301 RMK A01 T01550114  RH  076%=      5-min Rain = 0
KPD2 120818Z 33002KT 16/11 A301 RMK A01 T01550114  RH  077%=      5-min Rain = 0
KPD2 120819Z 32002KT 15/11 A301 RMK A01 T01540114  RH  077%=      5-min Rain = 0
KPD2 120820Z 32003KT 15/11 A301 RMK A01 T01540114  RH  077%=      5-min Rain = 0
KPD2 120821Z 32003KT 15/11 A301 RMK A01 T01540114  RH  077%=      5-min Rain = 0
KPD2 120822Z 32002KT 15/11 A301 RMK A01 T01540114  RH  077%=      5-min Rain = 0
KPD2 120823Z 31003KT 15/11 A301 RMK A01 T01540114  RH  077%=      5-min Rain = 0
KPD2 120824Z 32003KT 16/11 A301 RMK A01 T01550114  RH  077%=      5-min Rain = 0
KPD2 120825Z 31003KT 16/11 A301 RMK A01 T01550114  RH  077%=      5-min Rain = 0
KPD2 120826Z 31003KT 16/11 A301 RMK A01 T01550114  RH  076%=      5-min Rain = 0
KPD2 120827Z 30003KT 16/11 A301 RMK A01 T01550113  RH  076%=      5-min Rain = 0
KPD2 120828Z 30003KT 16/11 A301 RMK A01 T01550113  RH  076%=      5-min Rain = 0
KPD2 120829Z 30003KT 16/11 A301 RMK A01 T01550113  RH  076%=      5-min Rain = 0
KPD2 120830Z 29003KT 16/11 A301 RMK A01 T01560113  RH  076%=      5-min Rain = 0
KPD2 120831Z 29003KT 16/11 A301 RMK A01 T01560113  RH  076%=      5-min Rain = 0
KPD2 120832Z 29002KT 16/11 A301 RMK A01 T01560113  RH  076%=      5-min Rain = 0
KPD2 120833Z 28003KT 16/11 A301 RMK A01 T01550113  RH  076%=      5-min Rain = 0
KPD2 120834Z 28002KT 16/11 A3009 RMK A01 T01550113  RH  076%=      5-min Rain = 0
KPD2 120835Z 29002KT 15/11 A3009 RMK A01 T01540112  RH  076%=      5-min Rain = 0
KPD2 120836Z 30002KT 15/11 A3009 RMK A01 T01530112  RH  077%=      5-min Rain = 0
KPD2 120837Z 30002KT 15/11 A3009 RMK A01 T01520111  RH  077%=      5-min Rain = 0
KPD2 120838Z 32002KT 15/11 A3009 RMK A01 T01500111  RH  077%=      5-min Rain = 0
KPD2 120839Z 33002KT 15/11 A3009 RMK A01 T01490111  RH  078%=      5-min Rain = 0
KPD2 120840Z 32001KT 15/11 A3009 RMK A01 T01480111  RH  078%=      5-min Rain = 0
KPD2 120841Z 29002KT 15/11 A3009 RMK A01 T01480111  RH  079%=      5-min Rain = 0
KPD2 120842Z 30002KT 15/11 A3009 RMK A01 T01480111  RH  079%=      5-min Rain = 0
KPD2 120843Z 29002KT 15/11 A3009 RMK A01 T01470112  RH  079%=      5-min Rain = 0
KPD2 120844Z 29002KT 15/11 A3009 RMK A01 T01470111  RH  079%=      5-min Rain = 0
KPD2 120845Z 29002KT 15/11 A3009 RMK A01 T01470112  RH  079%=      5-min Rain = 0
KPD2 120846Z 29002KT 15/11 A3009 RMK A01 T01470112  RH  080%=      5-min Rain = 0
KPD2 120847Z 30001KT 15/11 A3009 RMK A01 T01470112  RH  080%=      5-min Rain = 0
KPD2 120848Z 30001KT 15/11 A3009 RMK A01 T01470112  RH  080%=      5-min Rain = 0
KPD2 120849Z 28002KT 15/11 A3009 RMK A01 T01470112  RH  080%=      5-min Rain = 0
KPD2 120850Z 27002KT 15/11 A3009 RMK A01 T01470112  RH  079%=      5-min Rain = 0
KPD2 120851Z 27002KT 15/11 A3009 RMK A01 T01470111  RH  079%=      5-min Rain = 0
KPD2 120852Z 28002KT 15/11 A3009 RMK A01 T01470112  RH  079%=      5-min Rain = 0
KPD2 120853Z 28003KT 15/11 A3009 RMK A01 T01460111  RH  080%=      5-min Rain = 0
KPD2 120854Z 28003KT 15/11 A3009 RMK A01 T01460112  RH  080%=      5-min Rain = 0
KPD2 120855Z 29003KT 15/11 A3009 RMK A01 T01460112  RH  080%=      5-min Rain = 0
KPD2 120856Z 30004KT 15/11 A3009 RMK A01 T01460112  RH  080%=      5-min Rain = 0
KPD2 120857Z 31003KT 15/11 A3009 RMK A01 T01460112  RH  080%=      5-min Rain = 0
KPD2 120858Z 31002KT 15/11 A3009 RMK A01 T01460111  RH  080%=      5-min Rain = 0
KPD2 120859Z 32002KT 15/11 A3009 RMK A01 T01450111  RH  080%=      5-min Rain = 0
KPD2 120900Z 33002KT 15/11 A3009 RMK A01 T01450112  RH  080%=      5-min Rain = 0
KPD2 120901Z 32001KT 15/11 A3009 RMK A01 T01450112  RH  080%=      5-min Rain = 0
KPD2 120902Z 32001KT 15/11 A3009 RMK A01 T01450111  RH  080%=      5-min Rain = 0
KPD2 120903Z 32002KT 15/11 A3009 RMK A01 T01450112  RH  081%=      5-min Rain = 0
KPD2 120904Z 31002KT 15/11 A3009 RMK A01 T01450112  RH  080%=      5-min Rain = 0
KPD2 120905Z 31002KT 15/11 A3009 RMK A01 T01450111  RH  080%=      5-min Rain = 0
KPD2 120906Z 29002KT 15/11 A3009 RMK A01 T01450112  RH  080%=      5-min Rain = 0
KPD2 120907Z 29001KT 15/11 A3009 RMK A01 T01450112  RH  080%=      5-min Rain = 0
KPD2 120908Z 29001KT 15/11 A3009 RMK A01 T01460112  RH  080%=      5-min Rain = 0
KPD2 120909Z 29001KT 15/11 A3009 RMK A01 T01450112  RH  080%=      5-min Rain = 0
KPD2 120910Z 29000KT 15/11 A3009 RMK A01 T01450112  RH  081%=      5-min Rain = 0
KPD2 120911Z 29001KT 14/11 A3009 RMK A01 T01440112  RH  081%=      5-min Rain = 0
KPD2 120912Z 29001KT 15/11 A3009 RMK A01 T01450112  RH  081%=      5-min Rain = 0
KPD2 120913Z 29001KT 14/11 A3009 RMK A01 T01440112  RH  081%=      5-min Rain = 0
KPD2 120914Z 29001KT 14/11 A3009 RMK A01 T01440113  RH  081%=      5-min Rain = 0
KPD2 120915Z 29002KT 14/11 A3009 RMK A01 T01440113  RH  081%=      5-min Rain = 0
KPD2 120916Z 28002KT 14/11 A3009 RMK A01 T01440113  RH  081%=      5-min Rain = 0
KPD2 120917Z 30002KT 15/11 A3009 RMK A01 T01450113  RH  081%=      5-min Rain = 0
KPD2 120918Z 30002KT 14/11 A3009 RMK A01 T01440112  RH  081%=      5-min Rain = 0
KPD2 120919Z 30002KT 14/11 A3009 RMK A01 T01440113  RH  081%=      5-min Rain = 0
KPD2 120920Z 29002KT 14/11 A3009 RMK A01 T01440112  RH  081%=      5-min Rain = 0
KPD2 120921Z 29002KT 15/11 A3009 RMK A01 T01450113  RH  081%=      5-min Rain = 0
KPD2 120922Z 32002KT 15/11 A3009 RMK A01 T01450113  RH  081%=      5-min Rain = 0
KPD2 120923Z 34002KT 15/11 A3009 RMK A01 T01450112  RH  081%=      5-min Rain = 0
KPD2 120924Z 32003KT 15/11 A3009 RMK A01 T01450112  RH  081%=      5-min Rain = 0
KPD2 120925Z 32003KT 15/11 A3008 RMK A01 T01450112  RH  081%=      5-min Rain = 0
KPD2 120926Z 32002KT 15/11 A3008 RMK A01 T01450112  RH  080%=      5-min Rain = 0
KPD2 120927Z 32002KT 15/11 A3008 RMK A01 T01450112  RH  080%=      5-min Rain = 0
KPD2 120928Z 32002KT 15/11 A3008 RMK A01 T01450112  RH  080%=      5-min Rain = 0
KPD2 120929Z 32002KT 15/11 A3008 RMK A01 T01450112  RH  080%=      5-min Rain = 0
KPD2 120930Z 32002KT 15/11 A3008 RMK A01 T01450112  RH  080%=      5-min Rain = 0
KPD2 120931Z 32002KT 14/11 A3008 RMK A01 T01440111  RH  080%=      5-min Rain = 0
KPD2 120932Z 31003KT 14/11 A3008 RMK A01 T01440112  RH  081%=      5-min Rain = 0
KPD2 120933Z 32002KT 14/11 A3008 RMK A01 T01440111  RH  081%=      5-min Rain = 0
KPD2 120934Z 32003KT 14/11 A3008 RMK A01 T01440111  RH  081%=      5-min Rain = 0
KPD2 120935Z 32002KT 14/11 A3008 RMK A01 T01430111  RH  081%=      5-min Rain = 0
KPD2 120936Z 32002KT 14/11 A3008 RMK A01 T01430110  RH  081%=      5-min Rain = 0
KPD2 120937Z 33002KT 14/11 A3008 RMK A01 T01430111  RH  081%=      5-min Rain = 0
KPD2 120938Z 31002KT 14/11 A3008 RMK A01 T01420111  RH  081%=      5-min Rain = 0
KPD2 120939Z 31001KT 14/11 A3008 RMK A01 T01430111  RH  081%=      5-min Rain = 0
KPD2 120940Z 31002KT 14/11 A3008 RMK A01 T01430111  RH  081%=      5-min Rain = 0
KPD2 120941Z 31002KT 14/11 A3008 RMK A01 T01430111  RH  081%=      5-min Rain = 0
KPD2 120942Z 30002KT 14/11 A3008 RMK A01 T01430111  RH  081%=      5-min Rain = 0
KPD2 120943Z 29002KT 14/11 A3008 RMK A01 T01420110  RH  081%=      5-min Rain = 0
KPD2 120944Z 29003KT 14/11 A3008 RMK A01 T01420110  RH  081%=      5-min Rain = 0
KPD2 120945Z 28002KT 14/11 A3008 RMK A01 T01430110  RH  081%=      5-min Rain = 0
KPD2 120946Z 28003KT 14/11 A3008 RMK A01 T01420110  RH  081%=      5-min Rain = 0
KPD2 120947Z 29003KT 14/11 A3008 RMK A01 T01420111  RH  081%=      5-min Rain = 0
KPD2 120948Z 28003KT 14/11 A3008 RMK A01 T01420111  RH  081%=      5-min Rain = 0
KPD2 120949Z 28002KT 14/11 A3008 RMK A01 T01420110  RH  081%=      5-min Rain = 0
KPD2 120950Z 28001KT 14/11 A3008 RMK A01 T01410110  RH  081%=      5-min Rain = 0
KPD2 120951Z 31001KT 14/11 A3008 RMK A01 T01410110  RH  082%=      5-min Rain = 0
KPD2 120952Z 30001KT 14/11 A3008 RMK A01 T01390109  RH  082%=      5-min Rain = 0
KPD2 120953Z 30001KT 14/11 A3008 RMK A01 T01390110  RH  082%=      5-min Rain = 0
KPD2 120954Z 30001KT 14/11 A3008 RMK A01 T01390110  RH  082%=      5-min Rain = 0
KPD2 120955Z 30002KT 14/11 A3008 RMK A01 T01390110  RH  083%=      5-min Rain = 0
KPD2 120956Z 30001KT 14/11 A3008 RMK A01 T01390110  RH  083%=      5-min Rain = 0
KPD2 120957Z 29002KT 14/11 A3008 RMK A01 T01380109  RH  083%=      5-min Rain = 0
KPD2 120958Z 28001KT 14/11 A3008 RMK A01 T01380110  RH  083%=      5-min Rain = 0
KPD2 120959Z 29001KT 14/11 A3008 RMK A01 T01380110  RH  083%=      5-min Rain = 0
KPD2 121000Z 29002KT 14/11 A3008 RMK A01 T01380110  RH  083%=      5-min Rain = 0
KPD2 121001Z 29002KT 14/11 A3008 RMK A01 T01380111  RH  084%=      5-min Rain = 0
KPD2 121002Z 28002KT 14/11 A3008 RMK A01 T01380110  RH  084%=      5-min Rain = 0
KPD2 121003Z 28002KT 14/11 A3008 RMK A01 T01370110  RH  084%=      5-min Rain = 0
KPD2 121004Z 28002KT 14/11 A3008 RMK A01 T01380110  RH  084%=      5-min Rain = 0
KPD2 121005Z 28002KT 14/11 A3008 RMK A01 T01370110  RH  083%=      5-min Rain = 0
KPD2 121006Z 28002KT 14/11 A3008 RMK A01 T01380110  RH  084%=      5-min Rain = 0
KPD2 121007Z 29002KT 14/11 A3008 RMK A01 T01380110  RH  084%=      5-min Rain = 0
KPD2 121008Z 29002KT 14/11 A3008 RMK A01 T01380110  RH  084%=      5-min Rain = 0
KPD2 121009Z 29003KT 14/11 A3008 RMK A01 T01370110  RH  084%=      5-min Rain = 0
KPD2 121010Z 29003KT 14/11 A3008 RMK A01 T01380110  RH  083%=      5-min Rain = 0
KPD2 121011Z 30004KT 14/11 A3008 RMK A01 T01370109  RH  083%=      5-min Rain = 0
KPD2 121012Z 31003KT 14/11 A3008 RMK A01 T01370110  RH  084%=      5-min Rain = 0
KPD2 121013Z 30003KT 14/11 A3008 RMK A01 T01370110  RH  084%=      5-min Rain = 0
KPD2 121014Z 30003KT 14/11 A3008 RMK A01 T01370110  RH  084%=      5-min Rain = 0
KPD2 121015Z 31002KT 14/11 A3008 RMK A01 T01370110  RH  084%=      5-min Rain = 0
KPD2 121016Z 32002KT 14/11 A3008 RMK A01 T01370109  RH  084%=      5-min Rain = 0
KPD2 121017Z 34002KT 14/11 A3008 RMK A01 T01360109  RH  084%=      5-min Rain = 0
KPD2 121018Z 33002KT 14/11 A3008 RMK A01 T01360109  RH  084%=      5-min Rain = 0
KPD2 121019Z 31002KT 14/11 A3008 RMK A01 T01360109  RH  084%=      5-min Rain = 0
KPD2 121020Z 32002KT 14/11 A3008 RMK A01 T01360110  RH  084%=      5-min Rain = 0
KPD2 121021Z 32002KT 14/11 A3008 RMK A01 T01360110  RH  084%=      5-min Rain = 0
KPD2 121022Z 32002KT 14/11 A3008 RMK A01 T01360110  RH  084%=      5-min Rain = 0
KPD2 121023Z 31002KT 14/11 A3008 RMK A01 T01360111  RH  084%=      5-min Rain = 0
KPD2 121024Z 32002KT 14/11 A3008 RMK A01 T01370111  RH  084%=      5-min Rain = 0
KPD2 121025Z 33003KT 14/11 A3008 RMK A01 T01370111  RH  084%=      5-min Rain = 0
KPD2 121026Z 33002KT 14/11 A3008 RMK A01 T01380111  RH  084%=      5-min Rain = 0
KPD2 121027Z 32002KT 14/11 A3008 RMK A01 T01380110  RH  083%=      5-min Rain = 0
KPD2 121028Z 33003KT 14/11 A3008 RMK A01 T01380110  RH  083%=      5-min Rain = 0
KPD2 121029Z 32002KT 14/11 A3008 RMK A01 T01380110  RH  083%=      5-min Rain = 0
KPD2 121030Z 32003KT 14/11 A3008 RMK A01 T01380110  RH  083%=      5-min Rain = 0
KPD2 121031Z 32002KT 14/11 A3008 RMK A01 T01380110  RH  083%=      5-min Rain = 0
KPD2 121032Z 33002KT 14/11 A3008 RMK A01 T01380109  RH  083%=      5-min Rain = 0
KPD2 121033Z 33000KT 14/11 A3008 RMK A01 T01380109  RH  083%=      5-min Rain = 0
KPD2 121034Z 25001KT 14/11 A3008 RMK A01 T01380109  RH  083%=      5-min Rain = 0
KPD2 121035Z 00000KT 14/11 A3008 RMK A01 T01380110  RH  083%=      5-min Rain = 0
KPD2 121036Z 30001KT 14/11 A3008 RMK A01 T01380110  RH  083%=      5-min Rain = 0
KPD2 121037Z 30001KT 14/11 A3008 RMK A01 T01380110  RH  083%=      5-min Rain = 0
KPD2 121038Z 31001KT 14/11 A3008 RMK A01 T01380110  RH  083%=      5-min Rain = 0
KPD2 121039Z 31001KT 14/11 A3008 RMK A01 T01370109  RH  083%=      5-min Rain = 0
KPD2 121040Z 30002KT 14/11 A3008 RMK A01 T01380110  RH  083%=      5-min Rain = 0
KPD2 121041Z 31002KT 14/11 A3008 RMK A01 T01390110  RH  083%=      5-min Rain = 0
KPD2 121042Z 30002KT 14/11 A3008 RMK A01 T01390110  RH  083%=      5-min Rain = 0
KPD2 121043Z 30002KT 14/11 A3008 RMK A01 T01390110  RH  083%=      5-min Rain = 0
KPD2 121044Z 29002KT 14/11 A3008 RMK A01 T01390110  RH  083%=      5-min Rain = 0
KPD2 121045Z 29002KT 14/11 A3008 RMK A01 T01390110  RH  083%=      5-min Rain = 0
KPD2 121046Z 29002KT 14/11 A3008 RMK A01 T01390110  RH  083%=      5-min Rain = 0
KPD2 121047Z 30002KT 14/11 A3008 RMK A01 T01390110  RH  083%=      5-min Rain = 0
KPD2 121048Z 31002KT 14/11 A3008 RMK A01 T01390110  RH  083%=      5-min Rain = 0
KPD2 121049Z 30002KT 14/11 A3008 RMK A01 T01390110  RH  082%=      5-min Rain = 0
KPD2 121050Z 31002KT 14/11 A3008 RMK A01 T01390110  RH  082%=      5-min Rain = 0
KPD2 121051Z 30002KT 14/11 A3008 RMK A01 T01400110  RH  082%=      5-min Rain = 0
KPD2 121052Z 34002KT 14/11 A3008 RMK A01 T01400110  RH  082%=      5-min Rain = 0
KPD2 121053Z 32003KT 14/11 A3008 RMK A01 T01400110  RH  082%=      5-min Rain = 0
KPD2 121054Z 31002KT 14/11 A3008 RMK A01 T01390109  RH  082%=      5-min Rain = 0
KPD2 121055Z 30002KT 14/11 A3008 RMK A01 T01390109  RH  082%=      5-min Rain = 0
KPD2 121056Z 29002KT 14/11 A3008 RMK A01 T01390108  RH  082%=      5-min Rain = 0
KPD2 121057Z 28002KT 14/11 A3008 RMK A01 T01380107  RH  082%=      5-min Rain = 0
KPD2 121058Z 28002KT 14/11 A3008 RMK A01 T01380107  RH  082%=      5-min Rain = 0
KPD2 121059Z 29002KT 14/11 A3008 RMK A01 T01370107  RH  082%=      5-min Rain = 0
KPD2 121100Z 29002KT 14/11 A3008 RMK A01 T01370108  RH  083%=      5-min Rain = 0
KPD2 121101Z 29003KT 14/11 A3008 RMK A01 T01370109  RH  083%=      5-min Rain = 0
KPD2 121102Z 29003KT 14/11 A3008 RMK A01 T01370109  RH  083%=      5-min Rain = 0
KPD2 121103Z 30003KT 14/11 A3008 RMK A01 T01370109  RH  083%=      5-min Rain = 0
KPD2 121104Z 30003KT 14/11 A3008 RMK A01 T01360109  RH  083%=      5-min Rain = 0
KPD2 121105Z 30003KT 14/11 A3008 RMK A01 T01360109  RH  083%=      5-min Rain = 0
KPD2 121106Z 30002KT 14/11 A3008 RMK A01 T01360109  RH  083%=      5-min Rain = 0
KPD2 121107Z 31002KT 14/11 A3008 RMK A01 T01360109  RH  083%=      5-min Rain = 0
KPD2 121108Z 31002KT 14/11 A3008 RMK A01 T01360109  RH  084%=      5-min Rain = 0
KPD2 121109Z 31002KT 14/11 A3008 RMK A01 T01360109  RH  084%=      5-min Rain = 0
KPD2 121110Z 31002KT 14/11 A3008 RMK A01 T01360109  RH  084%=      5-min Rain = 0
KPD2 121111Z 29001KT 14/11 A3008 RMK A01 T01360109  RH  084%=      5-min Rain = 0
KPD2 121112Z 29002KT 14/11 A3008 RMK A01 T01360109  RH  083%=      5-min Rain = 0
KPD2 121113Z 28001KT 14/11 A3008 RMK A01 T01360108  RH  083%=      5-min Rain = 0
KPD2 121114Z 29001KT 14/11 A3008 RMK A01 T01360108  RH  083%=      5-min Rain = 0
KPD2 121115Z 28000KT 14/11 A3008 RMK A01 T01360108  RH  083%=      5-min Rain = 0
KPD2 121116Z 00000KT 14/11 A3008 RMK A01 T01360108  RH  084%=      5-min Rain = 0
KPD2 121117Z 00000KT 14/11 A3008 RMK A01 T01360109  RH  084%=      5-min Rain = 0
KPD2 121118Z 00000KT 14/11 A3008 RMK A01 T01360109  RH  084%=      5-min Rain = 0
KPD2 121119Z 00000KT 14/11 A3008 RMK A01 T01360109  RH  084%=      5-min Rain = 0
KPD2 121120Z 00000KT 14/11 A3008 RMK A01 T01360109  RH  084%=      5-min Rain = 0
KPD2 121121Z 00000KT 14/11 A3008 RMK A01 T01360109  RH  084%=      5-min Rain = 0
KPD2 121122Z 00000KT 14/11 A3008 RMK A01 T01350109  RH  084%=      5-min Rain = 0
KPD2 121123Z 00000KT 14/11 A3008 RMK A01 T01350109  RH  084%=      5-min Rain = 0
KPD2 121124Z 28000KT 14/11 A3008 RMK A01 T01350109  RH  084%=      5-min Rain = 0
KPD2 121125Z 28001KT 14/11 A3008 RMK A01 T01350109  RH  084%=      5-min Rain = 0
KPD2 121126Z 28001KT 14/11 A3008 RMK A01 T01360109  RH  084%=      5-min Rain = 0
KPD2 121127Z 27001KT 14/11 A3008 RMK A01 T01360109  RH  084%=      5-min Rain = 0
KPD2 121128Z 26001KT 14/11 A3008 RMK A01 T01360109  RH  084%=      5-min Rain = 0
KPD2 121129Z 26000KT 14/11 A3008 RMK A01 T01350109  RH  084%=      5-min Rain = 0
KPD2 121130Z 26000KT 14/11 A3008 RMK A01 T01350109  RH  084%=      5-min Rain = 0
KPD2 121131Z 26001KT 14/11 A3008 RMK A01 T01350109  RH  084%=      5-min Rain = 0
KPD2 121132Z 25001KT 13/11 A3008 RMK A01 T01340109  RH  084%=      5-min Rain = 0
KPD2 121133Z 24001KT 13/11 A3008 RMK A01 T01340108  RH  084%=      5-min Rain = 0
KPD2 121134Z 24002KT 13/11 A3008 RMK A01 T01340108  RH  084%=      5-min Rain = 0
KPD2 121135Z 25002KT 14/11 A3008 RMK A01 T01350108  RH  084%=      5-min Rain = 0
KPD2 121136Z 26002KT 14/11 A3008 RMK A01 T01350109  RH  084%=      5-min Rain = 0
KPD2 121137Z 26001KT 14/11 A3008 RMK A01 T01350109  RH  084%=      5-min Rain = 0
KPD2 121138Z 26001KT 14/11 A3008 RMK A01 T01360109  RH  084%=      5-min Rain = 0
KPD2 121139Z 26001KT 14/11 A3008 RMK A01 T01360109  RH  084%=      5-min Rain = 0
KPD2 121140Z 26001KT 14/11 A3008 RMK A01 T01350108  RH  084%=      5-min Rain = 0
KPD2 121141Z 26001KT 14/11 A3008 RMK A01 T01360109  RH  084%=      5-min Rain = 0
KPD2 121142Z 26001KT 14/11 A3008 RMK A01 T01370109  RH  083%=      5-min Rain = 0
KPD2 121143Z 26000KT 14/11 A3008 RMK A01 T01370109  RH  083%=      5-min Rain = 0
KPD2 121144Z 26001KT 14/11 A3008 RMK A01 T01370109  RH  083%=      5-min Rain = 0
KPD2 121145Z 00000KT 14/11 A3008 RMK A01 T01380108  RH  082%=      5-min Rain = 0
KPD2 121146Z 21000KT 14/11 A3008 RMK A01 T01380108  RH  082%=      5-min Rain = 0
KPD2 121147Z 21000KT 14/11 A3008 RMK A01 T01380108  RH  082%=      5-min Rain = 0
KPD2 121148Z 00000KT 14/11 A3008 RMK A01 T01380108  RH  082%=      5-min Rain = 0
KPD2 121149Z 00000KT 14/11 A3008 RMK A01 T01380108  RH  082%=      5-min Rain = 0
KPD2 121150Z 00000KT 14/11 A3008 RMK A01 T01380108  RH  082%=      5-min Rain = 0
KPD2 121151Z 00000KT 14/11 A3008 RMK A01 T01380108  RH  082%=      5-min Rain = 0
KPD2 121152Z 00000KT 14/11 A3008 RMK A01 T01370108  RH  083%=      5-min Rain = 0
KPD2 121153Z 00000KT 14/11 A3008 RMK A01 T01370109  RH  083%=      5-min Rain = 0
KPD2 121154Z 00000KT 14/11 A3008 RMK A01 T01370109  RH  083%=      5-min Rain = 0
KPD2 121155Z 00000KT 14/11 A3008 RMK A01 T01370109  RH  083%=      5-min Rain = 0
KPD2 121156Z 00000KT 14/11 A3008 RMK A01 T01370108  RH  083%=      5-min Rain = 0
KPD2 121157Z 00000KT 14/11 A3008 RMK A01 T01360108  RH  083%=      5-min Rain = 0
KPD2 121158Z 00000KT 14/11 A3008 RMK A01 T01350107  RH  083%=      5-min Rain = 0
KPD2 121159Z 00000KT 13/11 A3008 RMK A01 T01330105  RH  083%=      5-min Rain = 0
KPD2 121200Z 23000KT 13/10 A3008 RMK A01 T01320104  RH  083%=      5-min Rain = 0
KPD2 121201Z 23000KT 13/11 A3008 RMK A01 T01320105  RH  084%=      5-min Rain = 0
KPD2 121202Z 23001KT 13/10 A3008 RMK A01 T01300104  RH  084%=      5-min Rain = 0
KPD2 121203Z 23000KT 13/11 A3008 RMK A01 T01300105  RH  085%=      5-min Rain = 0
KPD2 121204Z 00000KT 13/11 A3008 RMK A01 T01300105  RH  085%=      5-min Rain = 0
KPD2 121205Z 00000KT 13/11 A3008 RMK A01 T01300106  RH  085%=      5-min Rain = 0
KPD2 121206Z 00000KT 13/11 A3008 RMK A01 T01300105  RH  085%=      5-min Rain = 0
KPD2 121207Z 00000KT 13/11 A3008 RMK A01 T01300105  RH  085%=      5-min Rain = 0
KPD2 121208Z 00000KT 13/11 A3008 RMK A01 T01300105  RH  085%=      5-min Rain = 0
KPD2 121209Z 31002KT 13/11 A3008 RMK A01 T01300105  RH  085%=      5-min Rain = 0
KPD2 121210Z 32002KT 13/11 A3008 RMK A01 T01300105  RH  085%=      5-min Rain = 0
KPD2 121211Z 32002KT 13/11 A3008 RMK A01 T01300105  RH  085%=      5-min Rain = 0
KPD2 121212Z 32002KT 13/11 A3008 RMK A01 T01300105  RH  085%=      5-min Rain = 0
KPD2 121213Z 32002KT 13/10 A3008 RMK A01 T01300104  RH  085%=      5-min Rain = 0
KPD2 121214Z 32002KT 13/11 A3008 RMK A01 T01300105  RH  085%=      5-min Rain = 0
KPD2 121215Z 34002KT 13/11 A3008 RMK A01 T01300106  RH  085%=      5-min Rain = 0
KPD2 121216Z 34002KT 13/11 A3008 RMK A01 T01300106  RH  086%=      5-min Rain = 0
KPD2 121217Z 34002KT 13/11 A3008 RMK A01 T01300106  RH  086%=      5-min Rain = 0
KPD2 121218Z 34002KT 13/11 A3008 RMK A01 T01300107  RH  086%=      5-min Rain = 0
KPD2 121219Z 34002KT 13/11 A3008 RMK A01 T01300106  RH  086%=      5-min Rain = 0
KPD2 121220Z 34002KT 13/11 A3008 RMK A01 T01290106  RH  086%=      5-min Rain = 0
KPD2 121221Z 34002KT 13/10 A3008 RMK A01 T01290104  RH  085%=      5-min Rain = 0
KPD2 121222Z 34001KT 13/10 A3008 RMK A01 T01280102  RH  084%=      5-min Rain = 0
KPD2 121223Z 33001KT 13/10 A3008 RMK A01 T01280103  RH  085%=      5-min Rain = 0
KPD2 121224Z 33001KT 13/10 A3008 RMK A01 T01280104  RH  085%=      5-min Rain = 0
KPD2 121225Z 33001KT 13/10 A3008 RMK A01 T01280104  RH  085%=      5-min Rain = 0
KPD2 121226Z 33001KT 13/10 A3008 RMK A01 T01280104  RH  085%=      5-min Rain = 0
KPD2 121227Z 29001KT 13/11 A3008 RMK A01 T01290105  RH  085%=      5-min Rain = 0
KPD2 121228Z 29002KT 13/11 A3008 RMK A01 T01280105  RH  086%=      5-min Rain = 0
KPD2 121229Z 30003KT 13/11 A3008 RMK A01 T01280105  RH  086%=      5-min Rain = 0
KPD2 121230Z 30003KT 13/10 A3008 RMK A01 T01270104  RH  086%=      5-min Rain = 0
KPD2 121231Z 31003KT 13/10 A3008 RMK A01 T01260104  RH  086%=      5-min Rain = 0
KPD2 121232Z 31003KT 13/10 A3008 RMK A01 T01250103  RH  086%=      5-min Rain = 0
KPD2 121233Z 31002KT 13/10 A3008 RMK A01 T01250103  RH  086%=      5-min Rain = 0
KPD2 121234Z 31002KT 12/10 A3008 RMK A01 T01240103  RH  087%=      5-min Rain = 0
KPD2 121235Z 31002KT 12/10 A3008 RMK A01 T01240104  RH  087%=      5-min Rain = 0
KPD2 121236Z 32002KT 12/10 A3007 RMK A01 T01240103  RH  087%=      5-min Rain = 0
KPD2 121237Z 34002KT 12/10 A3007 RMK A01 T01240103  RH  088%=      5-min Rain = 0
KPD2 121238Z 34002KT 12/10 A3007 RMK A01 T01230103  RH  088%=      5-min Rain = 0
KPD2 121239Z 34002KT 12/10 A3007 RMK A01 T01230104  RH  088%=      5-min Rain = 0
KPD2 121240Z 32002KT 12/10 A3007 RMK A01 T01230104  RH  088%=      5-min Rain = 0
KPD2 121241Z 32001KT 12/11 A3007 RMK A01 T01240105  RH  088%=      5-min Rain = 0
KPD2 121242Z 32001KT 13/11 A3007 RMK A01 T01250106  RH  088%=      5-min Rain = 0
KPD2 121243Z 31001KT 13/11 A3007 RMK A01 T01250105  RH  087%=      5-min Rain = 0
KPD2 121244Z 31001KT 13/10 A3007 RMK A01 T01250104  RH  087%=      5-min Rain = 0
KPD2 121245Z 29001KT 13/10 A3007 RMK A01 T01250104  RH  087%=      5-min Rain = 0
KPD2 121246Z 29001KT 13/10 A3007 RMK A01 T01250104  RH  087%=      5-min Rain = 0
KPD2 121247Z 28001KT 13/10 A3007 RMK A01 T01250104  RH  087%=      5-min Rain = 0
KPD2 121248Z 28001KT 13/10 A3007 RMK A01 T01250103  RH  087%=      5-min Rain = 0
KPD2 121249Z 28001KT 13/10 A3007 RMK A01 T01250103  RH  086%=      5-min Rain = 0
KPD2 121250Z 28000KT 13/10 A3007 RMK A01 T01250103  RH  087%=      5-min Rain = 0
KPD2 121251Z 00000KT 13/10 A3007 RMK A01 T01250103  RH  086%=      5-min Rain = 0
KPD2 121252Z 00000KT 13/10 A3007 RMK A01 T01250103  RH  086%=      5-min Rain = 0
KPD2 121253Z 00000KT 13/10 A3007 RMK A01 T01250103  RH  087%=      5-min Rain = 0
KPD2 121254Z 00000KT 13/10 A3007 RMK A01 T01260104  RH  087%=      5-min Rain = 0
KPD2 121255Z 28001KT 13/11 A3007 RMK A01 T01270105  RH  087%=      5-min Rain = 0
KPD2 121256Z 28001KT 13/11 A3007 RMK A01 T01280107  RH  087%=      5-min Rain = 0
KPD2 121257Z 23001KT 13/11 A3007 RMK A01 T01290106  RH  086%=      5-min Rain = 0
KPD2 121258Z 23001KT 13/11 A3007 RMK A01 T01300106  RH  086%=      5-min Rain = 0
KPD2 121259Z 23001KT 13/11 A3007 RMK A01 T01310106  RH  085%=      5-min Rain = 0
KPD2 121300Z 23001KT 13/11 A3007 RMK A01 T01310106  RH  085%=      5-min Rain = 0
KPD2 121301Z 23001KT 13/11 A3008 RMK A01 T01320107  RH  085%=      5-min Rain = 0
KPD2 121302Z 23001KT 13/11 A3007 RMK A01 T01320106  RH  085%=      5-min Rain = 0
KPD2 121303Z 24001KT 13/11 A3007 RMK A01 T01310106  RH  085%=      5-min Rain = 0
KPD2 121304Z 24001KT 13/11 A3007 RMK A01 T01320106  RH  085%=      5-min Rain = 0
KPD2 121305Z 23000KT 13/11 A3007 RMK A01 T01320106  RH  085%=      5-min Rain = 0
KPD2 121306Z 00000KT 13/11 A3007 RMK A01 T01320106  RH  084%=      5-min Rain = 0
KPD2 121307Z 00000KT 13/11 A3007 RMK A01 T01320107  RH  084%=      5-min Rain = 0
KPD2 121308Z 00000KT 13/11 A3007 RMK A01 T01330107  RH  084%=      5-min Rain = 0
KPD2 121309Z 00000KT 13/11 A3007 RMK A01 T01330107  RH  084%=      5-min Rain = 0
KPD2 121310Z 00000KT 13/11 A3007 RMK A01 T01330107  RH  084%=      5-min Rain = 0
KPD2 121311Z 00000KT 13/11 A3007 RMK A01 T01340107  RH  084%=      5-min Rain = 0
KPD2 121312Z 00000KT 13/11 A3007 RMK A01 T01340106  RH  084%=      5-min Rain = 0
KPD2 121313Z 00000KT 13/11 A3007 RMK A01 T01340106  RH  083%=      5-min Rain = 0
KPD2 121314Z 00000KT 13/11 A3007 RMK A01 T01330105  RH  083%=      5-min Rain = 0
KPD2 121315Z 00000KT 13/11 A3007 RMK A01 T01330105  RH  083%=      5-min Rain = 0
KPD2 121316Z 33001KT 13/10 A3007 RMK A01 T01320104  RH  083%=      5-min Rain = 0
KPD2 121317Z 33002KT 13/10 A3007 RMK A01 T01310104  RH  084%=      5-min Rain = 0
KPD2 121318Z 34002KT 13/10 A3007 RMK A01 T01310104  RH  084%=      5-min Rain = 0
KPD2 121319Z 34002KT 13/10 A3007 RMK A01 T01310104  RH  084%=      5-min Rain = 0
KPD2 121320Z 35002KT 13/10 A3007 RMK A01 T01300104  RH  084%=      5-min Rain = 0
KPD2 121321Z 35002KT 13/10 A3007 RMK A01 T01300104  RH  084%=      5-min Rain = 0
KPD2 121322Z 36002KT 13/11 A3007 RMK A01 T01310105  RH  084%=      5-min Rain = 0
KPD2 121323Z 34001KT 13/11 A3007 RMK A01 T01320107  RH  085%=      5-min Rain = 0
KPD2 121324Z 34001KT 13/11 A3007 RMK A01 T01320107  RH  084%=      5-min Rain = 0
KPD2 121325Z 33001KT 13/11 A3007 RMK A01 T01330107  RH  084%=      5-min Rain = 0
KPD2 121326Z 32001KT 13/11 A3007 RMK A01 T01340107  RH  084%=      5-min Rain = 0
KPD2 121327Z 32000KT 14/11 A3007 RMK A01 T01350107  RH  083%=      5-min Rain = 0
KPD2 121328Z 32000KT 14/11 A3007 RMK A01 T01360107  RH  083%=      5-min Rain = 0
KPD2 121329Z 00000KT 14/11 A3007 RMK A01 T01360106  RH  082%=      5-min Rain = 0
KPD2 121330Z 24000KT 14/11 A3007 RMK A01 T01370107  RH  082%=      5-min Rain = 0
KPD2 121331Z 24000KT 14/11 A3007 RMK A01 T01380107  RH  082%=      5-min Rain = 0
KPD2 121332Z 00000KT 14/11 A3007 RMK A01 T01390108  RH  081%=      5-min Rain = 0
KPD2 121333Z 24000KT 14/11 A3007 RMK A01 T01400109  RH  081%=      5-min Rain = 0
KPD2 121334Z 25000KT 14/11 A3007 RMK A01 T01410109  RH  081%=      5-min Rain = 0
KPD2 121335Z 26001KT 14/11 A3007 RMK A01 T01420109  RH  081%=      5-min Rain = 0
KPD2 121336Z 27001KT 14/11 A3007 RMK A01 T01430110  RH  080%=      5-min Rain = 0
KPD2 121337Z 28002KT 14/11 A3007 RMK A01 T01440110  RH  080%=      5-min Rain = 0
KPD2 121338Z 29001KT 15/11 A3007 RMK A01 T01450111  RH  080%=      5-min Rain = 0
KPD2 121339Z 33001KT 15/11 A3007 RMK A01 T01460111  RH  079%=      5-min Rain = 0
KPD2 121340Z 35001KT 15/11 A3007 RMK A01 T01460111  RH  079%=      5-min Rain = 0
KPD2 121341Z 35001KT 15/11 A3007 RMK A01 T01460111  RH  079%=      5-min Rain = 0
KPD2 121342Z 00001KT 15/11 A3007 RMK A01 T01470111  RH  079%=      5-min Rain = 0
KPD2 121343Z 00001KT 15/11 A3007 RMK A01 T01480110  RH  078%=      5-min Rain = 0
KPD2 121344Z 00000KT 15/11 A3007 RMK A01 T01480110  RH  078%=      5-min Rain = 0
KPD2 121345Z 00000KT 15/11 A3007 RMK A01 T01490111  RH  078%=      5-min Rain = 0
KPD2 121346Z 00000KT 15/11 A3007 RMK A01 T01490109  RH  077%=      5-min Rain = 0
KPD2 121347Z 00000KT 15/11 A3007 RMK A01 T01490109  RH  077%=      5-min Rain = 0
KPD2 121348Z 00000KT 15/11 A3007 RMK A01 T01500109  RH  077%=      5-min Rain = 0
KPD2 121349Z 00000KT 15/11 A3007 RMK A01 T01510109  RH  076%=      5-min Rain = 0
KPD2 121350Z 00000KT 15/11 A3007 RMK A01 T01510110  RH  076%=      5-min Rain = 0
KPD2 121351Z 00000KT 15/11 A3007 RMK A01 T01530110  RH  075%=      5-min Rain = 0
KPD2 121352Z 00000KT 15/11 A3007 RMK A01 T01540110  RH  075%=      5-min Rain = 0
KPD2 121353Z 00000KT 16/11 A3007 RMK A01 T01560112  RH  075%=      5-min Rain = 0
KPD2 121354Z 02000KT 16/11 A3007 RMK A01 T01580113  RH  074%=      5-min Rain = 0
KPD2 121355Z 02001KT 16/11 A3007 RMK A01 T01600113  RH  073%=      5-min Rain = 0
KPD2 121356Z 02000KT 16/11 A3007 RMK A01 T01620113  RH  073%=      5-min Rain = 0
KPD2 121357Z 01000KT 16/11 A3007 RMK A01 T01640114  RH  072%=      5-min Rain = 0
KPD2 121358Z 35000KT 17/12 A3007 RMK A01 T01650115  RH  072%=      5-min Rain = 0
KPD2 121359Z 23001KT 17/12 A3007 RMK A01 T01660115  RH  072%=      5-min Rain = 0
KPD2 121400Z 25001KT 17/11 A3007 RMK A01 T01670114  RH  071%=      5-min Rain = 0
KPD2 121401Z 25000KT 17/11 A3007 RMK A01 T01680114  RH  070%=      5-min Rain = 0
KPD2 121402Z 25000KT 17/11 A3007 RMK A01 T01690114  RH  070%=      5-min Rain = 0
KPD2 121403Z 00000KT 17/11 A3007 RMK A01 T01700114  RH  070%=      5-min Rain = 0
KPD2 121404Z 00000KT 17/11 A3007 RMK A01 T01700112  RH  069%=      5-min Rain = 0
KPD2 121405Z 00000KT 17/11 A3007 RMK A01 T01720114  RH  069%=      5-min Rain = 0
KPD2 121406Z 28000KT 17/12 A3007 RMK A01 T01730115  RH  069%=      5-min Rain = 0
KPD2 121407Z 00000KT 18/12 A3007 RMK A01 T01750116  RH  068%=      5-min Rain = 0
KPD2 121408Z 00000KT 18/11 A3007 RMK A01 T01780114  RH  066%=      5-min Rain = 0
KPD2 121409Z 13000KT 18/11 A3007 RMK A01 T01800113  RH  065%=      5-min Rain = 0
KPD2 121410Z 00000KT 18/11 A3007 RMK A01 T01810113  RH  065%=      5-min Rain = 0
KPD2 121411Z 25000KT 18/12 A3007 RMK A01 T01830115  RH  064%=      5-min Rain = 0
KPD2 121412Z 26001KT 18/11 A3007 RMK A01 T01830114  RH  064%=      5-min Rain = 0
KPD2 121413Z 26000KT 18/11 A3007 RMK A01 T01830114  RH  064%=      5-min Rain = 0
KPD2 121414Z 26001KT 18/11 A3007 RMK A01 T01840113  RH  063%=      5-min Rain = 0
KPD2 121415Z 27002KT 18/11 A3007 RMK A01 T01840113  RH  063%=      5-min Rain = 0
KPD2 121416Z 26001KT 18/11 A3007 RMK A01 T01840113  RH  063%=      5-min Rain = 0
KPD2 121417Z 31001KT 18/11 A3007 RMK A01 T01840114  RH  064%=      5-min Rain = 0
KPD2 121418Z 33001KT 18/12 A3007 RMK A01 T01840116  RH  064%=      5-min Rain = 0
KPD2 121419Z 33002KT 19/12 A3007 RMK A01 T01850115  RH  064%=      5-min Rain = 0
KPD2 121420Z 32002KT 19/11 A3007 RMK A01 T01850113  RH  063%=      5-min Rain = 0
KPD2 121421Z 30001KT 19/11 A3007 RMK A01 T01850112  RH  062%=      5-min Rain = 0
KPD2 121422Z 35000KT 18/11 A3007 RMK A01 T01840111  RH  062%=      5-min Rain = 0
KPD2 121423Z 03001KT 18/12 A3007 RMK A01 T01840115  RH  064%=      5-min Rain = 0
KPD2 121424Z 03000KT 19/12 A3007 RMK A01 T01850115  RH  064%=      5-min Rain = 0
KPD2 121425Z 00000KT 19/12 A3007 RMK A01 T01860116  RH  063%=      5-min Rain = 0
KPD2 121426Z 00000KT 19/12 A3007 RMK A01 T01880116  RH  063%=      5-min Rain = 0
KPD2 121427Z 28001KT 19/11 A3007 RMK A01 T01880114  RH  062%=      5-min Rain = 0
KPD2 121428Z 27001KT 19/11 A3007 RMK A01 T01880114  RH  062%=      5-min Rain = 0
KPD2 121429Z 26001KT 19/12 A3007 RMK A01 T01880115  RH  062%=      5-min Rain = 0
KPD2 121430Z 30001KT 19/11 A3007 RMK A01 T01880114  RH  062%=      5-min Rain = 0
KPD2 121431Z 30001KT 19/11 A3007 RMK A01 T01880114  RH  062%=      5-min Rain = 0
KPD2 121432Z 32001KT 19/12 A3007 RMK A01 T01890116  RH  062%=      5-min Rain = 0
KPD2 121433Z 33001KT 19/11 A3007 RMK A01 T01900114  RH  061%=      5-min Rain = 0
KPD2 121434Z 29001KT 19/12 A3007 RMK A01 T01910116  RH  062%=      5-min Rain = 0
KPD2 121435Z 26001KT 19/12 A3007 RMK A01 T01920116  RH  061%=      5-min Rain = 0
KPD2 121436Z 28000KT 19/12 A3007 RMK A01 T01920115  RH  061%=      5-min Rain = 0
KPD2 121437Z 06001KT 19/12 A3007 RMK A01 T01930115  RH  061%=      5-min Rain = 0
KPD2 121438Z 04001KT 19/12 A3007 RMK A01 T01940116  RH  061%=      5-min Rain = 0
KPD2 121439Z 00000KT 20/12 A3007 RMK A01 T01950115  RH  060%=      5-min Rain = 0
KPD2 121440Z 05000KT 20/11 A3007 RMK A01 T01970114  RH  059%=      5-min Rain = 0
KPD2 121441Z 16000KT 20/12 A3007 RMK A01 T01990115  RH  058%=      5-min Rain = 0
KPD2 121442Z 17001KT 20/11 A3007 RMK A01 T02010114  RH  057%=      5-min Rain = 0
KPD2 121443Z 19001KT 20/11 A3007 RMK A01 T02020114  RH  057%=      5-min Rain = 0
KPD2 121444Z 17002KT 20/11 A3007 RMK A01 T02020114  RH  057%=      5-min Rain = 0
KPD2 121445Z 19001KT 20/12 A3007 RMK A01 T02020115  RH  057%=      5-min Rain = 0
KPD2 121446Z 16001KT 20/12 A3007 RMK A01 T02020115  RH  057%=      5-min Rain = 0
KPD2 121447Z 15000KT 20/12 A3007 RMK A01 T02030116  RH  057%=      5-min Rain = 0
KPD2 121448Z 14002KT 20/12 A3007 RMK A01 T02030115  RH  057%=      5-min Rain = 0
KPD2 121449Z 15003KT 20/11 A3007 RMK A01 T02040112  RH  056%=      5-min Rain = 0
KPD2 121450Z 15003KT 21/11 A3007 RMK A01 T02050111  RH  055%=      5-min Rain = 0
KPD2 121451Z 14002KT 21/11 A3007 RMK A01 T02060112  RH  055%=      5-min Rain = 0
KPD2 121452Z 16001KT 21/11 A3007 RMK A01 T02070112  RH  055%=      5-min Rain = 0
KPD2 121453Z 15003KT 21/11 A3007 RMK A01 T02080113  RH  054%=      5-min Rain = 0
KPD2 121454Z 14003KT 21/11 A3007 RMK A01 T02100111  RH  053%=      5-min Rain = 0
KPD2 121455Z 14003KT 21/11 A3007 RMK A01 T02110111  RH  053%=      5-min Rain = 0
KPD2 121456Z 14003KT 21/11 A3007 RMK A01 T02110112  RH  053%=      5-min Rain = 0
KPD2 121457Z 13004KT 21/11 A3007 RMK A01 T02130112  RH  053%=      5-min Rain = 0
KPD2 121458Z 14002KT 21/11 A3007 RMK A01 T02140113  RH  052%=      5-min Rain = 0
KPD2 121459Z 15004KT 22/11 A3007 RMK A01 T02160114  RH  052%=      5-min Rain = 0
KPD2 121500Z 16004KT 22/11 A3007 RMK A01 T02170114  RH  052%=      5-min Rain = 0
KPD2 121501Z 14004KT 22/12 A3007 RMK A01 T02170115  RH  052%=      5-min Rain = 0
KPD2 121502Z 14004KT 22/12 A3007 RMK A01 T02180115  RH  052%=      5-min Rain = 0
KPD2 121503Z 14003KT 22/12 A3007 RMK A01 T02180116  RH  052%=      5-min Rain = 0
KPD2 121504Z 12003KT 22/12 A3007 RMK A01 T02190117  RH  052%=      5-min Rain = 0
KPD2 121505Z 11004KT 22/12 A3007 RMK A01 T02220116  RH  051%=      5-min Rain = 0
KPD2 121506Z 13005KT 22/12 A3007 RMK A01 T02240116  RH  050%=      5-min Rain = 0
KPD2 121507Z 11004KT 23/12 A3007 RMK A01 T02270115  RH  049%=      5-min Rain = 0
KPD2 121508Z 11004KT 23/12 A3007 RMK A01 T02280116  RH  049%=      5-min Rain = 0
KPD2 121509Z 13003KT 23/12 A3007 RMK A01 T02300116  RH  049%=      5-min Rain = 0
KPD2 121510Z 13004KT 23/12 A3007 RMK A01 T02310116  RH  048%=      5-min Rain = 0
KPD2 121511Z 11004KT 23/12 A3007 RMK A01 T02310117  RH  048%=      5-min Rain = 0
KPD2 121512Z 13003KT 23/12 A3007 RMK A01 T02320117  RH  048%=      5-min Rain = 0
KPD2 121513Z 10004KT 23/12 A3007 RMK A01 T02330117  RH  048%=      5-min Rain = 0
KPD2 121514Z 11003KT 23/12 A3007 RMK A01 T02340116  RH  047%=      5-min Rain = 0
KPD2 121515Z 11004KT 23/12 A3007 RMK A01 T02340117  RH  048%=      5-min Rain = 0
KPD2 121516Z 11003KT 24/12 A3007 RMK A01 T02350118  RH  048%=      5-min Rain = 0
KPD2 121517Z 10002KT 24/12 A3006 RMK A01 T02370117  RH  047%=      5-min Rain = 0
KPD2 121518Z 11004KT 24/12 A3006 RMK A01 T02380118  RH  047%=      5-min Rain = 0
KPD2 121519Z 12003KT 24/12 A3006 RMK A01 T02400117  RH  046%=      5-min Rain = 0
KPD2 121520Z 09002KT 24/12 A3006 RMK A01 T02410117  RH  046%=      5-min Rain = 0
KPD2 121521Z 11002KT 24/12 A3006 RMK A01 T02410120  RH  047%=      5-min Rain = 0
KPD2 121522Z 10003KT 24/12 A3006 RMK A01 T02430119  RH  046%=      5-min Rain = 0
KPD2 121523Z 08003KT 25/12 A3006 RMK A01 T02460118  RH  045%=      5-min Rain = 0
KPD2 121524Z 08004KT 25/12 A3006 RMK A01 T02460118  RH  045%=      5-min Rain = 0
KPD2 121525Z 08004KT 25/12 A3006 RMK A01 T02470118  RH  045%=      5-min Rain = 0
KPD2 121526Z 09003KT 25/12 A3006 RMK A01 T02470119  RH  045%=      5-min Rain = 0
KPD2 121527Z 09001KT 25/12 A3006 RMK A01 T02470117  RH  044%=      5-min Rain = 0
KPD2 121528Z 14003KT 25/12 A3006 RMK A01 T02470118  RH  045%=      5-min Rain = 0
KPD2 121529Z 13003KT 25/12 A3006 RMK A01 T02470119  RH  045%=      5-min Rain = 0
KPD2 121530Z 12003KT 25/12 A3006 RMK A01 T02470118  RH  044%=      5-min Rain = 0
KPD2 121531Z 12002KT 25/12 A3006 RMK A01 T02460116  RH  044%=      5-min Rain = 0
KPD2 121532Z 09003KT 25/12 A3006 RMK A01 T02450119  RH  045%=      5-min Rain = 0
KPD2 121533Z 10003KT 25/12 A3006 RMK A01 T02470122  RH  046%=      5-min Rain = 0
KPD2 121534Z 11003KT 25/12 A3006 RMK A01 T02510122  RH  044%=      5-min Rain = 0
KPD2 121535Z 12005KT 25/12 A3006 RMK A01 T02530121  RH  044%=      5-min Rain = 0
KPD2 121536Z 11004KT 26/12 A3006 RMK A01 T02550120  RH  043%=      5-min Rain = 0
KPD2 121537Z 11004KT 26/12 A3006 RMK A01 T02550120  RH  043%=      5-min Rain = 0
KPD2 121538Z 09003KT 26/12 A3006 RMK A01 T02570121  RH  043%=      5-min Rain = 0
KPD2 121539Z 11002KT 26/12 A3006 RMK A01 T02570121  RH  043%=      5-min Rain = 0
KPD2 121540Z 09003KT 26/12 A3006 RMK A01 T02560121  RH  043%=      5-min Rain = 0
KPD2 121541Z 10003KT 26/12 A3006 RMK A01 T02570121  RH  043%=      5-min Rain = 0
KPD2 121542Z 13005KT 26/12 A3006 RMK A01 T02580124  RH  043%=      5-min Rain = 0
KPD2 121543Z 13003KT 26/12 A3006 RMK A01 T02590119  RH  042%=      5-min Rain = 0
KPD2 121544Z 09002KT 26/12 A3006 RMK A01 T02570122  RH  043%=      5-min Rain = 0
KPD2 121545Z 11004KT 26/12 A3006 RMK A01 T02580124  RH  043%=      5-min Rain = 0
KPD2 121546Z 13003KT 26/12 A3006 RMK A01 T02600122  RH  042%=      5-min Rain = 0
KPD2 121547Z 11003KT 26/12 A3006 RMK A01 T02610120  RH  041%=      5-min Rain = 0
KPD2 121548Z 11004KT 26/12 A3006 RMK A01 T02600123  RH  042%=      5-min Rain = 0
KPD2 121549Z 11003KT 26/12 A3006 RMK A01 T02600123  RH  043%=      5-min Rain = 0
KPD2 121550Z 13004KT 26/12 A3006 RMK A01 T02630123  RH  042%=      5-min Rain = 0
KPD2 121551Z 12003KT 26/12 A3006 RMK A01 T02640122  RH  041%=      5-min Rain = 0
KPD2 121552Z 10004KT 26/12 A3006 RMK A01 T02640123  RH  041%=      5-min Rain = 0
KPD2 121553Z 08003KT 26/12 A3005 RMK A01 T02640123  RH  041%=      5-min Rain = 0
KPD2 121554Z 08001KT 26/13 A3005 RMK A01 T02640125  RH  042%=      5-min Rain = 0
KPD2 121555Z 12002KT 27/12 A3005 RMK A01 T02660124  RH  041%=      5-min Rain = 0
KPD2 121556Z 11003KT 27/12 A3005 RMK A01 T02670122  RH  041%=      5-min Rain = 0
KPD2 121557Z 10004KT 27/13 A3005 RMK A01 T02670125  RH  041%=      5-min Rain = 0
KPD2 121558Z 09004KT 27/12 A3005 RMK A01 T02680123  RH  041%=      5-min Rain = 0
KPD2 121559Z 09003KT 27/13 A3005 RMK A01 T02690125  RH  041%=      5-min Rain = 0
KPD2 121600Z 08002KT 27/13 A3005 RMK A01 T02700125  RH  041%=      5-min Rain = 0
KPD2 121601Z 10003KT 27/13 A3005 RMK A01 T02700125  RH  041%=      5-min Rain = 0
KPD2 121602Z 08002KT 27/13 A3005 RMK A01 T02710125  RH  040%=      5-min Rain = 0
KPD2 121603Z 08003KT 27/13 A3005 RMK A01 T02730126  RH  040%=      5-min Rain = 0
KPD2 121604Z 09002KT 27/13 A3005 RMK A01 T02740128  RH  040%=      5-min Rain = 0
KPD2 121605Z 09004KT 28/13 A3005 RMK A01 T02770127  RH  039%=      5-min Rain = 0
KPD2 121606Z 08003KT 28/13 A3005 RMK A01 T02770126  RH  039%=      5-min Rain = 0
KPD2 121607Z 09003KT 28/13 A3005 RMK A01 T02770127  RH  040%=      5-min Rain = 0
KPD2 121608Z 08003KT 28/13 A3005 RMK A01 T02770126  RH  039%=      5-min Rain = 0
KPD2 121609Z 09002KT 28/13 A3005 RMK A01 T02770125  RH  039%=      5-min Rain = 0
KPD2 121610Z 05002KT 28/12 A3005 RMK A01 T02770124  RH  039%=      5-min Rain = 0
KPD2 121611Z 02001KT 28/13 A3005 RMK A01 T02760126  RH  040%=      5-min Rain = 0
KPD2 121612Z 02000KT 28/13 A3005 RMK A01 T02760127  RH  040%=      5-min Rain = 0
KPD2 121613Z 10002KT 28/13 A3005 RMK A01 T02770128  RH  040%=      5-min Rain = 0
KPD2 121614Z 11004KT 28/13 A3005 RMK A01 T02790128  RH  039%=      5-min Rain = 0
KPD2 121615Z 10004KT 28/13 A3005 RMK A01 T02820127  RH  038%=      5-min Rain = 0
KPD2 121616Z 09004KT 28/13 A3005 RMK A01 T02830127  RH  038%=      5-min Rain = 0
KPD2 121617Z 11003KT 28/13 A3005 RMK A01 T02830129  RH  039%=      5-min Rain = 0
KPD2 121618Z 11004KT 28/13 A3005 RMK A01 T02840128  RH  038%=      5-min Rain = 0
KPD2 121619Z 11003KT 29/13 A3005 RMK A01 T02860131  RH  038%=      5-min Rain = 0
KPD2 121620Z 09002KT 29/13 A3005 RMK A01 T02880128  RH  037%=      5-min Rain = 0
KPD2 121621Z 12001KT 29/13 A3005 RMK A01 T02890128  RH  037%=      5-min Rain = 0
KPD2 121622Z 02001KT 29/13 A3005 RMK A01 T02910129  RH  037%=      5-min Rain = 0
KPD2 121623Z 09002KT 29/13 A3005 RMK A01 T02930129  RH  036%=      5-min Rain = 0
KPD2 121624Z 12003KT 29/13 A3005 RMK A01 T02940128  RH  036%=      5-min Rain = 0
KPD2 121625Z 15003KT 30/13 A3005 RMK A01 T02950126  RH  035%=      5-min Rain = 0
KPD2 121626Z 15002KT 29/13 A3005 RMK A01 T02930127  RH  036%=      5-min Rain = 0
KPD2 121627Z 11002KT 29/13 A3005 RMK A01 T02910126  RH  036%=      5-min Rain = 0
KPD2 121628Z 12003KT 29/13 A3005 RMK A01 T02900128  RH  037%=      5-min Rain = 0
KPD2 121629Z 11003KT 29/13 A3005 RMK A01 T02920128  RH  036%=      5-min Rain = 0
KPD2 121630Z 11003KT 29/13 A3005 RMK A01 T02930127  RH  036%=      5-min Rain = 0
KPD2 121631Z 11002KT 29/13 A3005 RMK A01 T02920128  RH  036%=      5-min Rain = 0
KPD2 121632Z 11001KT 29/13 A3005 RMK A01 T02920125  RH  036%=      5-min Rain = 0
KPD2 121633Z 10003KT 29/13 A3005 RMK A01 T02920128  RH  036%=      5-min Rain = 0
KPD2 121634Z 11002KT 29/13 A3005 RMK A01 T02920128  RH  036%=      5-min Rain = 0
KPD2 121635Z 14003KT 29/13 A3005 RMK A01 T02930126  RH  036%=      5-min Rain = 0
KPD2 121636Z 13001KT 29/13 A3005 RMK A01 T02920126  RH  036%=      5-min Rain = 0
KPD2 121637Z 11001KT 29/12 A3005 RMK A01 T02900124  RH  036%=      5-min Rain = 0
KPD2 121638Z 19001KT 29/13 A3005 RMK A01 T02900126  RH  036%=      5-min Rain = 0
KPD2 121639Z 07001KT 29/13 A3005 RMK A01 T02910127  RH  036%=      5-min Rain = 0
KPD2 121640Z 06001KT 29/13 A3004 RMK A01 T02930129  RH  036%=      5-min Rain = 0
KPD2 121641Z 14000KT 30/13 A3004 RMK A01 T02960127  RH  035%=      5-min Rain = 0
KPD2 121642Z 14001KT 30/13 A3004 RMK A01 T02970125  RH  035%=      5-min Rain = 0
KPD2 121643Z 11001KT 30/13 A3004 RMK A01 T02960127  RH  035%=      5-min Rain = 0
KPD2 121644Z 10002KT 30/13 A3004 RMK A01 T02960129  RH  036%=      5-min Rain = 0
KPD2 121645Z 10003KT 30/13 A3004 RMK A01 T02980128  RH  035%=      5-min Rain = 0
KPD2 121646Z 14003KT 30/13 A3004 RMK A01 T02980126  RH  035%=      5-min Rain = 0
KPD2 121647Z 13003KT 30/12 A3004 RMK A01 T02970124  RH  034%=      5-min Rain = 0
KPD2 121648Z 15001KT 30/13 A3004 RMK A01 T02950125  RH  035%=      5-min Rain = 0
KPD2 121649Z 22002KT 30/12 A3004 RMK A01 T02950124  RH  035%=      5-min Rain = 0
KPD2 121650Z 25002KT 29/12 A3004 RMK A01 T02940122  RH  035%=      5-min Rain = 0
KPD2 121651Z 28002KT 29/12 A3004 RMK A01 T02910123  RH  036%=      5-min Rain = 0
KPD2 121652Z 29001KT 29/12 A3004 RMK A01 T02900123  RH  036%=      5-min Rain = 0
KPD2 121653Z 31001KT 29/12 A3004 RMK A01 T02900122  RH  036%=      5-min Rain = 0
KPD2 121654Z 26000KT 29/13 A3004 RMK A01 T02900125  RH  036%=      5-min Rain = 0
KPD2 121655Z 27001KT 29/12 A3004 RMK A01 T02920123  RH  035%=      5-min Rain = 0
KPD2 121656Z 31000KT 29/12 A3004 RMK A01 T02930122  RH  035%=      5-min Rain = 0
KPD2 121657Z 00000KT 29/12 A3004 RMK A01 T02940121  RH  035%=      5-min Rain = 0
KPD2 121658Z 13002KT 30/12 A3004 RMK A01 T02950124  RH  035%=      5-min Rain = 0
KPD2 121659Z 16001KT 30/12 A3004 RMK A01 T02960122  RH  034%=      5-min Rain = 0
KPD2 121700Z 13002KT 30/12 A3004 RMK A01 T02970122  RH  034%=      5-min Rain = 0
KPD2 121701Z 13002KT 30/12 A3004 RMK A01 T03000120  RH  033%=      5-min Rain = 0
KPD2 121702Z 13002KT 30/12 A3003 RMK A01 T03010121  RH  033%=      5-min Rain = 0
KPD2 121703Z 12002KT 30/12 A3004 RMK A01 T03020122  RH  033%=      5-min Rain = 0
KPD2 121704Z 11003KT 30/12 A3003 RMK A01 T03000123  RH  034%=      5-min Rain = 0
KPD2 121705Z 11003KT 30/13 A3003 RMK A01 T03000125  RH  034%=      5-min Rain = 0
KPD2 121706Z 10003KT 30/12 A3003 RMK A01 T03020123  RH  033%=      5-min Rain = 0
KPD2 121707Z 11002KT 30/12 A3003 RMK A01 T03030121  RH  033%=      5-min Rain = 0
KPD2 121708Z 10001KT 30/12 A3003 RMK A01 T03020120  RH  033%=      5-min Rain = 0
KPD2 121709Z 08001KT 30/12 A3003 RMK A01 T03020122  RH  033%=      5-min Rain = 0
KPD2 121710Z 04001KT 30/12 A3003 RMK A01 T03000119  RH  033%=      5-min Rain = 0
KPD2 121711Z 02001KT 30/12 A3003 RMK A01 T02970120  RH  034%=      5-min Rain = 0
KPD2 121712Z 06001KT 30/12 A3003 RMK A01 T02960123  RH  034%=      5-min Rain = 0
KPD2 121713Z 10002KT 30/12 A3003 RMK A01 T02990123  RH  034%=      5-min Rain = 0
KPD2 121714Z 09003KT 30/12 A3003 RMK A01 T03020122  RH  033%=      5-min Rain = 0
KPD2 121715Z 08003KT 30/12 A3003 RMK A01 T03030121  RH  033%=      5-min Rain = 0
KPD2 121716Z 07002KT 30/12 A3003 RMK A01 T03040121  RH  032%=      5-min Rain = 0
KPD2 121717Z 09002KT 30/12 A3003 RMK A01 T03040120  RH  032%=      5-min Rain = 0
KPD2 121718Z 04001KT 30/12 A3003 RMK A01 T03040122  RH  033%=      5-min Rain = 0
KPD2 121719Z 01000KT 31/12 A3003 RMK A01 T03060123  RH  033%=      5-min Rain = 0
KPD2 121720Z 01001KT 31/12 A3003 RMK A01 T03060119  RH  032%=      5-min Rain = 0
KPD2 121721Z 31001KT 31/12 A3003 RMK A01 T03080123  RH  032%=      5-min Rain = 0
KPD2 121722Z 28002KT 31/13 A3003 RMK A01 T03100125  RH  032%=      5-min Rain = 0
KPD2 121723Z 02001KT 31/12 A3003 RMK A01 T03120123  RH  032%=      5-min Rain = 0
KPD2 121724Z 27001KT 31/12 A3003 RMK A01 T03130123  RH  031%=      5-min Rain = 0
KPD2 121725Z 13002KT 32/12 A3003 RMK A01 T03150119  RH  030%=      5-min Rain = 0
KPD2 121726Z 15001KT 32/12 A3003 RMK A01 T03150119  RH  030%=      5-min Rain = 0
KPD2 121727Z 15002KT 32/12 A3002 RMK A01 T03170121  RH  030%=      5-min Rain = 0
KPD2 121728Z 11005KT 32/12 A3002 RMK A01 T03190118  RH  029%=      5-min Rain = 0
KPD2 121729Z 08003KT 32/12 A3002 RMK A01 T03210124  RH  030%=      5-min Rain = 0
KPD2 121730Z 09002KT 32/12 A3002 RMK A01 T03240120  RH  029%=      5-min Rain = 0
KPD2 121731Z 10002KT 33/12 A3002 RMK A01 T03260118  RH  028%=      5-min Rain = 0
KPD2 121732Z 10003KT 33/12 A3002 RMK A01 T03270115  RH  027%=      5-min Rain = 0
KPD2 121733Z 10001KT 33/11 A3002 RMK A01 T03250107  RH  026%=      5-min Rain = 0
KPD2 121734Z 12002KT 32/11 A3002 RMK A01 T03220107  RH  027%=      5-min Rain = 0
KPD2 121735Z 07001KT 32/11 A3002 RMK A01 T03210109  RH  027%=      5-min Rain = 0
KPD2 121736Z 09002KT 32/11 A3002 RMK A01 T03200112  RH  028%=      5-min Rain = 0
KPD2 121737Z 10002KT 32/11 A3002 RMK A01 T03220113  RH  028%=      5-min Rain = 0
KPD2 121738Z 06001KT 32/11 A3002 RMK A01 T03240109  RH  027%=      5-min Rain = 0
KPD2 121739Z 04002KT 33/10 A3002 RMK A01 T03250101  RH  025%=      5-min Rain = 0
KPD2 121740Z 32001KT 32/10 A3002 RMK A01 T03230103  RH  026%=      5-min Rain = 0
KPD2 121741Z 32002KT 32/11 A3002 RMK A01 T03200109  RH  027%=      5-min Rain = 0
KPD2 121742Z 32002KT 32/11 A3002 RMK A01 T03170111  RH  028%=      5-min Rain = 0
KPD2 121743Z 30001KT 32/11 A3002 RMK A01 T03160112  RH  029%=      5-min Rain = 0
KPD2 121744Z 24001KT 32/11 A3002 RMK A01 T03160111  RH  028%=      5-min Rain = 0
KPD2 121745Z 11002KT 32/10 A3002 RMK A01 T03180104  RH  027%=      5-min Rain = 0
KPD2 121746Z 11005KT 32/11 A3001 RMK A01 T03190109  RH  027%=      5-min Rain = 0
KPD2 121747Z 12005KT 32/11 A3001 RMK A01 T03220109  RH  027%=      5-min Rain = 0
KPD2 121748Z 13005KT 32/10 A3001 RMK A01 T03240104  RH  026%=      5-min Rain = 0
KPD2 121749Z 12005KT 32/10 A3001 RMK A01 T03240104  RH  026%=      5-min Rain = 0
KPD2 121750Z 11003KT 32/10 A3001 RMK A01 T03240103  RH  026%=      5-min Rain = 0
KPD2 121751Z 09000KT 32/10 A3001 RMK A01 T03240101  RH  025%=      5-min Rain = 0
KPD2 121752Z 19001KT 32/10 A3001 RMK A01 T03220100  RH  025%=      5-min Rain = 0
KPD2 121753Z 22001KT 32/11 A3001 RMK A01 T03220106  RH  027%=      5-min Rain = 0
KPD2 121754Z 22001KT 32/11 A3001 RMK A01 T03220106  RH  026%=      5-min Rain = 0
KPD2 121755Z 13002KT 32/11 A3001 RMK A01 T03220109  RH  027%=      5-min Rain = 0
KPD2 121756Z 11003KT 32/11 A3001 RMK A01 T03230112  RH  027%=      5-min Rain = 0
KPD2 121757Z 13003KT 32/11 A3001 RMK A01 T03230111  RH  027%=      5-min Rain = 0
KPD2 121758Z 13001KT 32/11 A3001 RMK A01 T03230111  RH  027%=      5-min Rain = 0
KPD2 121759Z 15001KT 32/11 A3001 RMK A01 T03230109  RH  027%=      5-min Rain = 0
KPD2 121800Z 24000KT 32/11 A3001 RMK A01 T03220107  RH  027%=      5-min Rain = 0
KPD2 121801Z 24002KT 32/11 A3001 RMK A01 T03220110  RH  027%=      5-min Rain = 0
KPD2 121802Z 17002KT 32/11 A3001 RMK A01 T03230110  RH  027%=      5-min Rain = 0
KPD2 121803Z 14003KT 32/10 A3001 RMK A01 T03240104  RH  026%=      5-min Rain = 0
KPD2 121804Z 12005KT 33/11 A3001 RMK A01 T03250107  RH  026%=      5-min Rain = 0
KPD2 121805Z 11003KT 33/11 A3001 RMK A01 T03290107  RH  026%=      5-min Rain = 0
KPD2 121806Z 14002KT 33/10 A3001 RMK A01 T03310104  RH  025%=      5-min Rain = 0
KPD2 121807Z 14004KT 33/10 A3001 RMK A01 T03300103  RH  025%=      5-min Rain = 0
KPD2 121808Z 17002KT 33/11 A3001 RMK A01 T03280106  RH  026%=      5-min Rain = 0
KPD2 121809Z 11004KT 33/11 A3001 RMK A01 T03260107  RH  026%=      5-min Rain = 0
KPD2 121810Z 11004KT 33/11 A3001 RMK A01 T03260110  RH  027%=      5-min Rain = 0
KPD2 121811Z 12002KT 33/11 A3001 RMK A01 T03280111  RH  026%=      5-min Rain = 0
KPD2 121812Z 12001KT 33/10 A30 RMK A01 T03300104  RH  025%=      5-min Rain = 0
KPD2 121813Z 10001KT 33/10 A30 RMK A01 T03310104  RH  025%=      5-min Rain = 0
KPD2 121814Z 14000KT 33/10 A30 RMK A01 T03320099  RH  024%=      5-min Rain = 0
KPD2 121815Z 16001KT 33/10 A30 RMK A01 T03330102  RH  024%=      5-min Rain = 0
KPD2 121816Z 14002KT 33/10 A30 RMK A01 T03320100  RH  024%=      5-min Rain = 0
KPD2 121817Z 13001KT 33/10 A30 RMK A01 T03300099  RH  024%=      5-min Rain = 0
KPD2 121818Z 23002KT 33/10 A30 RMK A01 T03280098  RH  024%=      5-min Rain = 0
KPD2 121819Z 24002KT 33/10 A30 RMK A01 T03280101  RH  025%=      5-min Rain = 0
KPD2 121820Z 25003KT 33/10 A30 RMK A01 T03300100  RH  024%=      5-min Rain = 0
KPD2 121821Z 28003KT 33/10 A30 RMK A01 T03310101  RH  024%=      5-min Rain = 0
KPD2 121822Z 25002KT 33/10 A30 RMK A01 T03300097  RH  024%=      5-min Rain = 0
KPD2 121823Z 23003KT 33/10 A30 RMK A01 T03290100  RH  025%=      5-min Rain = 0
KPD2 121824Z 19002KT 33/10 A30 RMK A01 T03310104  RH  025%=      5-min Rain = 0
KPD2 121825Z 14002KT 33/10 A2999 RMK A01 T03330099  RH  024%=      5-min Rain = 0
KPD2 121826Z 13001KT 33/10 A2999 RMK A01 T03340100  RH  024%=      5-min Rain = 0
KPD2 121827Z 18001KT 34/10 A2999 RMK A01 T03350100  RH  024%=      5-min Rain = 0
KPD2 121828Z 16002KT 34/10 A2999 RMK A01 T03350100  RH  024%=      5-min Rain = 0
KPD2 121829Z 19001KT 34/11 A2999 RMK A01 T03350107  RH  025%=      5-min Rain = 0
KPD2 121830Z 32001KT 34/10 A2999 RMK A01 T03380104  RH  024%=      5-min Rain = 0
KPD2 121831Z 33002KT 34/10 A2999 RMK A01 T03400098  RH  023%=      5-min Rain = 0
KPD2 121832Z 36003KT 34/10 A2999 RMK A01 T03400103  RH  023%=      5-min Rain = 0
KPD2 121833Z 01004KT 34/11 A2999 RMK A01 T03420105  RH  023%=      5-min Rain = 0
KPD2 121834Z 00002KT 34/11 A2999 RMK A01 T03440107  RH  024%=      5-min Rain = 0
KPD2 121835Z 01002KT 35/11 A2999 RMK A01 T03470106  RH  023%=      5-min Rain = 0
KPD2 121836Z 36004KT 35/11 A2999 RMK A01 T03470105  RH  023%=      5-min Rain = 0
KPD2 121837Z 04004KT 35/11 A2999 RMK A01 T03460106  RH  023%=      5-min Rain = 0
KPD2 121838Z 09004KT 34/10 A2999 RMK A01 T03430104  RH  023%=      5-min Rain = 0
KPD2 121839Z 08005KT 34/11 A2999 RMK A01 T03430106  RH  024%=      5-min Rain = 0
KPD2 121840Z 10003KT 35/10 A2999 RMK A01 T03460103  RH  023%=      5-min Rain = 0
KPD2 121841Z 35001KT 35/10 A2999 RMK A01 T03460102  RH  023%=      5-min Rain = 0
KPD2 121842Z 09002KT 35/11 A2998 RMK A01 T03460105  RH  023%=      5-min Rain = 0
KPD2 121843Z 10005KT 35/11 A2999 RMK A01 T03480106  RH  023%=      5-min Rain = 0
KPD2 121844Z 09002KT 35/10 A2999 RMK A01 T03490099  RH  022%=      5-min Rain = 0
KPD2 121845Z 09005KT 35/10 A2998 RMK A01 T03480103  RH  022%=      5-min Rain = 0
KPD2 121846Z 09004KT 35/10 A2998 RMK A01 T03490099  RH  022%=      5-min Rain = 0
KPD2 121847Z 08003KT 35/10 A2998 RMK A01 T03480101  RH  022%=      5-min Rain = 0
KPD2 121848Z 06002KT 35/10 A2998 RMK A01 T03480102  RH  022%=      5-min Rain = 0
KPD2 121849Z 04002KT 35/10 A2998 RMK A01 T03490102  RH  022%=      5-min Rain = 0
KPD2 121850Z 05002KT 35/10 A2998 RMK A01 T03500101  RH  022%=      5-min Rain = 0
KPD2 121851Z 03003KT 35/09 A2998 RMK A01 T03500094  RH  021%=      5-min Rain = 0
KPD2 121852Z 36004KT 35/10 A2998 RMK A01 T03460095  RH  022%=      5-min Rain = 0
KPD2 121853Z 01005KT 35/10 A2998 RMK A01 T03480102  RH  022%=      5-min Rain = 0
KPD2 121854Z 05002KT 35/10 A2998 RMK A01 T03510101  RH  022%=      5-min Rain = 0
KPD2 121855Z 09003KT 35/10 A2998 RMK A01 T03540095  RH  021%=      5-min Rain = 0
KPD2 121856Z 03003KT 35/10 A2998 RMK A01 T03540095  RH  021%=      5-min Rain = 0
KPD2 121857Z 09003KT 35/09 A2998 RMK A01 T03530093  RH  020%=      5-min Rain = 0
KPD2 121858Z 09003KT 35/10 A2998 RMK A01 T03510095  RH  021%=      5-min Rain = 0
KPD2 121859Z 01001KT 35/09 A2998 RMK A01 T03510093  RH  021%=      5-min Rain = 0
KPD2 121900Z 00002KT 35/09 A2998 RMK A01 T03500094  RH  021%=      5-min Rain = 0
KPD2 121901Z 11002KT 35/09 A2998 RMK A01 T03520092  RH  020%=      5-min Rain = 0
KPD2 121902Z 17001KT 35/09 A2998 RMK A01 T03510091  RH  020%=      5-min Rain = 0
KPD2 121903Z 19001KT 35/09 A2998 RMK A01 T03520093  RH  021%=      5-min Rain = 0
KPD2 121904Z 16001KT 35/10 A2998 RMK A01 T03530100  RH  021%=      5-min Rain = 0
KPD2 121905Z 07000KT 36/10 A2998 RMK A01 T03580103  RH  021%=      5-min Rain = 0
KPD2 121906Z 27002KT 36/10 A2998 RMK A01 T03600098  RH  020%=      5-min Rain = 0
KPD2 121907Z 29003KT 36/10 A2997 RMK A01 T03580097  RH  021%=      5-min Rain = 0
KPD2 121908Z 32004KT 35/09 A2997 RMK A01 T03540092  RH  020%=      5-min Rain = 0
KPD2 121909Z 33004KT 35/09 A2997 RMK A01 T03510093  RH  021%=      5-min Rain = 0
KPD2 121910Z 34003KT 35/10 A2997 RMK A01 T03500095  RH  021%=      5-min Rain = 0
KPD2 121911Z 15001KT 35/09 A2997 RMK A01 T03490093  RH  021%=      5-min Rain = 0
KPD2 121912Z 27001KT 35/09 A2997 RMK A01 T03490093  RH  021%=      5-min Rain = 0
KPD2 121913Z 22001KT 35/09 A2997 RMK A01 T03500091  RH  021%=      5-min Rain = 0
KPD2 121914Z 13001KT 35/09 A2997 RMK A01 T03490090  RH  021%=      5-min Rain = 0
KPD2 121915Z 12002KT 35/09 A2997 RMK A01 T03460093  RH  021%=      5-min Rain = 0
KPD2 121916Z 11005KT 35/10 A2997 RMK A01 T03460098  RH  022%=      5-min Rain = 0
KPD2 121917Z 14004KT 35/10 A2997 RMK A01 T03490102  RH  022%=      5-min Rain = 0
KPD2 121918Z 16005KT 35/10 A2997 RMK A01 T03530100  RH  022%=      5-min Rain = 0
KPD2 121919Z 15005KT 36/10 A2997 RMK A01 T03550099  RH  021%=      5-min Rain = 0
KPD2 121920Z 14007KT 36/10 A2997 RMK A01 T03550097  RH  021%=      5-min Rain = 0
KPD2 121921Z 12004KT 36/10 A2997 RMK A01 T03550098  RH  021%=      5-min Rain = 0
KPD2 121922Z 12005KT 36/10 A2997 RMK A01 T03550097  RH  021%=      5-min Rain = 0
KPD2 121923Z 12008KT 35/10 A2997 RMK A01 T03540099  RH  021%=      5-min Rain = 0
KPD2 121924Z 12006KT 36/10 A2997 RMK A01 T03550098  RH  021%=      5-min Rain = 0
KPD2 121925Z 10005KT 36/10 A2997 RMK A01 T03560098  RH  021%=      5-min Rain = 0
KPD2 121926Z 13005KT 36/10 A2997 RMK A01 T03560095  RH  020%=      5-min Rain = 0
KPD2 121927Z 12004KT 36/10 A2997 RMK A01 T03560096  RH  021%=      5-min Rain = 0
KPD2 121928Z 10005KT 35/10 A2996 RMK A01 T03540096  RH  021%=      5-min Rain = 0
KPD2 121929Z 09003KT 35/10 A2996 RMK A01 T03540099  RH  021%=      5-min Rain = 0
KPD2 121930Z 16004KT 36/10 A2996 RMK A01 T03550097  RH  021%=      5-min Rain = 0
KPD2 121931Z 21005KT 36/10 A2996 RMK A01 T03550102  RH  021%=      5-min Rain = 0
KPD2 121932Z 24003KT 36/10 A2996 RMK A01 T03560099  RH  021%=      5-min Rain = 0
KPD2 121933Z 25003KT 35/10 A2996 RMK A01 T03540096  RH  021%=      5-min Rain = 0
KPD2 121934Z 20004KT 35/10 A2996 RMK A01 T03530098  RH  021%=      5-min Rain = 0
KPD2 121935Z 17006KT 35/10 A2996 RMK A01 T03530097  RH  021%=      5-min Rain = 0
KPD2 121936Z 16005KT 35/10 A2996 RMK A01 T03530095  RH  021%=      5-min Rain = 0
KPD2 121937Z 16005KT 35/10 A2996 RMK A01 T03500095  RH  021%=      5-min Rain = 0
KPD2 121938Z 14004KT 35/10 A2996 RMK A01 T03470097  RH  022%=      5-min Rain = 0
KPD2 121939Z 16003KT 35/10 A2996 RMK A01 T03470099  RH  022%=      5-min Rain = 0
KPD2 121940Z 18003KT 35/10 A2996 RMK A01 T03480100  RH  022%=      5-min Rain = 0
KPD2 121941Z 18003KT 35/10 A2996 RMK A01 T03490098  RH  022%=      5-min Rain = 0
KPD2 121942Z 17002KT 35/10 A2996 RMK A01 T03480097  RH  022%=      5-min Rain = 0
KPD2 121943Z 17002KT 35/10 A2996 RMK A01 T03480097  RH  022%=      5-min Rain = 0
KPD2 121944Z 18002KT 35/10 A2996 RMK A01 T03500097  RH  021%=      5-min Rain = 0
KPD2 121945Z 20000KT 35/09 A2996 RMK A01 T03500094  RH  021%=      5-min Rain = 0
KPD2 121946Z 25001KT 35/10 A2995 RMK A01 T03510103  RH  022%=      5-min Rain = 0
KPD2 121947Z 27002KT 36/10 A2995 RMK A01 T03550103  RH  022%=      5-min Rain = 0
KPD2 121948Z 30001KT 36/10 A2995 RMK A01 T03550097  RH  021%=      5-min Rain = 0
KPD2 121949Z 10004KT 35/10 A2995 RMK A01 T03530096  RH  021%=      5-min Rain = 0
KPD2 121950Z 20003KT 35/10 A2995 RMK A01 T03530096  RH  021%=      5-min Rain = 0
KPD2 121951Z 17002KT 35/10 A2995 RMK A01 T03520095  RH  021%=      5-min Rain = 0
KPD2 121952Z 17003KT 35/10 A2995 RMK A01 T03520098  RH  021%=      5-min Rain = 0
KPD2 121953Z 17004KT 35/10 A2995 RMK A01 T03530097  RH  021%=      5-min Rain = 0
KPD2 121954Z 17003KT 35/10 A2995 RMK A01 T03520095  RH  021%=      5-min Rain = 0
KPD2 121955Z 19001KT 35/09 A2995 RMK A01 T03500092  RH  021%=      5-min Rain = 0
KPD2 121956Z 17004KT 35/10 A2995 RMK A01 T03490096  RH  021%=      5-min Rain = 0
KPD2 121957Z 19004KT 35/10 A2995 RMK A01 T03500095  RH  021%=      5-min Rain = 0
KPD2 121958Z 17004KT 35/09 A2995 RMK A01 T03510093  RH  021%=      5-min Rain = 0
KPD2 121959Z 17004KT 35/09 A2994 RMK A01 T03490093  RH  021%=      5-min Rain = 0
KPD2 122000Z 21004KT 35/10 A2994 RMK A01 T03480095  RH  021%=      5-min Rain = 0
KPD2 122001Z 22004KT 35/10 A2994 RMK A01 T03480096  RH  022%=      5-min Rain = 0
KPD2 122002Z 22003KT 35/10 A2994 RMK A01 T03510099  RH  022%=      5-min Rain = 0
KPD2 122003Z 19002KT 35/10 A2994 RMK A01 T03530099  RH  021%=      5-min Rain = 0
KPD2 122004Z 17002KT 36/10 A2994 RMK A01 T03550098  RH  021%=      5-min Rain = 0
KPD2 122005Z 20001KT 36/10 A2994 RMK A01 T03550096  RH  021%=      5-min Rain = 0
KPD2 122006Z 20003KT 36/10 A2994 RMK A01 T03550096  RH  021%=      5-min Rain = 0
KPD2 122007Z 18005KT 35/10 A2994 RMK A01 T03530098  RH  021%=      5-min Rain = 0
KPD2 122008Z 17004KT 35/10 A2994 RMK A01 T03530098  RH  021%=      5-min Rain = 0
KPD2 122009Z 20004KT 35/10 A2994 RMK A01 T03530095  RH  021%=      5-min Rain = 0
KPD2 122010Z 21004KT 35/10 A2994 RMK A01 T03520097  RH  021%=      5-min Rain = 0
KPD2 122011Z 18005KT 35/10 A2994 RMK A01 T03520101  RH  022%=      5-min Rain = 0
KPD2 122012Z 16005KT 35/10 A2994 RMK A01 T03530103  RH  022%=      5-min Rain = 0
KPD2 122013Z 17004KT 35/10 A2994 RMK A01 T03540102  RH  022%=      5-min Rain = 0
KPD2 122014Z 21003KT 35/10 A2994 RMK A01 T03540104  RH  022%=      5-min Rain = 0
KPD2 122015Z 16002KT 35/10 A2994 RMK A01 T03540103  RH  022%=      5-min Rain = 0
KPD2 122016Z 05003KT 35/11 A2994 RMK A01 T03540105  RH  022%=      5-min Rain = 0
KPD2 122017Z 13002KT 36/10 A2994 RMK A01 T03550102  RH  022%=      5-min Rain = 0
KPD2 122018Z 17003KT 36/10 A2993 RMK A01 T03560104  RH  022%=      5-min Rain = 0
KPD2 122019Z 16007KT 36/11 A2993 RMK A01 T03580106  RH  022%=      5-min Rain = 0
KPD2 122020Z 17006KT 36/10 A2993 RMK A01 T03590104  RH  021%=      5-min Rain = 0
KPD2 122021Z 16003KT 36/10 A2993 RMK A01 T03570102  RH  021%=      5-min Rain = 0
KPD2 122022Z 16001KT 35/10 A2993 RMK A01 T03540100  RH  021%=      5-min Rain = 0
KPD2 122023Z 16001KT 35/10 A2993 RMK A01 T03530101  RH  022%=      5-min Rain = 0
KPD2 122024Z 19003KT 35/10 A2993 RMK A01 T03540104  RH  022%=      5-min Rain = 0
KPD2 122025Z 17004KT 36/11 A2993 RMK A01 T03550107  RH  022%=      5-min Rain = 0
KPD2 122026Z 12007KT 36/11 A2993 RMK A01 T03570113  RH  023%=      5-min Rain = 0
KPD2 122027Z 12006KT 36/11 A2993 RMK A01 T03610113  RH  022%=      5-min Rain = 0
KPD2 122028Z 14007KT 36/11 A2993 RMK A01 T03630107  RH  021%=      5-min Rain = 0
KPD2 122029Z 14006KT 36/10 A2993 RMK A01 T03620104  RH  021%=      5-min Rain = 0
KPD2 122030Z 11007KT 36/11 A2993 RMK A01 T03610112  RH  022%=      5-min Rain = 0
KPD2 122031Z 14006KT 36/11 A2993 RMK A01 T03620113  RH  022%=      5-min Rain = 0
KPD2 122032Z 13007KT 36/12 A2993 RMK A01 T03610115  RH  023%=      5-min Rain = 0
KPD2 122033Z 13003KT 36/11 A2993 RMK A01 T03610113  RH  022%=      5-min Rain = 0
KPD2 122034Z 15005KT 36/11 A2993 RMK A01 T03620114  RH  022%=      5-min Rain = 0
KPD2 122035Z 11004KT 36/12 A2993 RMK A01 T03630116  RH  023%=      5-min Rain = 0
KPD2 122036Z 11007KT 37/12 A2993 RMK A01 T03650120  RH  023%=      5-min Rain = 0
KPD2 122037Z 13008KT 37/12 A2992 RMK A01 T03670117  RH  022%=      5-min Rain = 0
KPD2 122038Z 14009KT 37/11 A2992 RMK A01 T03680114  RH  022%=      5-min Rain = 0
KPD2 122039Z 15008KT 37/12 A2992 RMK A01 T03650116  RH  022%=      5-min Rain = 0
KPD2 122040Z 15008KT 36/12 A2992 RMK A01 T03630117  RH  023%=      5-min Rain = 0
KPD2 122041Z 14011KT 36/12 A2992 RMK A01 T03620117  RH  023%=      5-min Rain = 0
KPD2 122042Z 14010KT 36/12 A2992 RMK A01 T03610115  RH  023%=      5-min Rain = 0
KPD2 122043Z 14009KT 36/11 A2992 RMK A01 T03570114  RH  023%=      5-min Rain = 0
KPD2 122044Z 16007KT 36/12 A2992 RMK A01 T03550116  RH  023%=      5-min Rain = 0
KPD2 122045Z 16008KT 36/12 A2992 RMK A01 T03550115  RH  024%=      5-min Rain = 0
KPD2 122046Z 13009KT 35/12 A2992 RMK A01 T03540116  RH  024%=      5-min Rain = 0
KPD2 122047Z 12005KT 35/12 A2992 RMK A01 T03540115  RH  023%=      5-min Rain = 0
KPD2 122048Z 13007KT 36/12 A2992 RMK A01 T03550117  RH  024%=      5-min Rain = 0
KPD2 122049Z 13008KT 36/12 A2992 RMK A01 T03580117  RH  023%=      5-min Rain = 0
KPD2 122050Z 15008KT 36/11 A2992 RMK A01 T03580113  RH  023%=      5-min Rain = 0
KPD2 122051Z 16004KT 35/11 A2992 RMK A01 T03530112  RH  023%=      5-min Rain = 0
KPD2 122052Z 16004KT 35/11 A2992 RMK A01 T03510113  RH  024%=      5-min Rain = 0
KPD2 122053Z 12008KT 35/12 A2992 RMK A01 T03510117  RH  024%=      5-min Rain = 0
KPD2 122054Z 13008KT 35/12 A2992 RMK A01 T03530115  RH  024%=      5-min Rain = 0
KPD2 122055Z 11006KT 36/12 A2992 RMK A01 T03550117  RH  024%=      5-min Rain = 0
KPD2 122056Z 11006KT 36/12 A2992 RMK A01 T03580116  RH  023%=      5-min Rain = 0
KPD2 122057Z 13008KT 36/12 A2992 RMK A01 T03590116  RH  023%=      5-min Rain = 0
KPD2 122058Z 16008KT 36/11 A2992 RMK A01 T03600114  RH  023%=      5-min Rain = 0
KPD2 122059Z 16008KT 36/11 A2992 RMK A01 T03600110  RH  022%=      5-min Rain = 0
KPD2 122100Z 18005KT 36/11 A2992 RMK A01 T03550108  RH  022%=      5-min Rain = 0
KPD2 122101Z 13007KT 35/11 A2992 RMK A01 T03520113  RH  024%=      5-min Rain = 0
KPD2 122102Z 12006KT 35/11 A2992 RMK A01 T03530114  RH  023%=      5-min Rain = 0
KPD2 122103Z 10006KT 36/11 A2991 RMK A01 T03560114  RH  023%=      5-min Rain = 0
KPD2 122104Z 10003KT 36/11 A2991 RMK A01 T03580111  RH  023%=      5-min Rain = 0
KPD2 122105Z 11004KT 36/11 A2991 RMK A01 T03580114  RH  023%=      5-min Rain = 0
KPD2 122106Z 11007KT 36/11 A2991 RMK A01 T03600114  RH  023%=      5-min Rain = 0
KPD2 122107Z 12005KT 36/11 A2991 RMK A01 T03620114  RH  022%=      5-min Rain = 0
KPD2 122108Z 09005KT 36/11 A2991 RMK A01 T03630112  RH  022%=      5-min Rain = 0
KPD2 122109Z 10006KT 36/11 A2991 RMK A01 T03630114  RH  022%=      5-min Rain = 0
KPD2 122110Z 08004KT 36/11 A2991 RMK A01 T03610113  RH  022%=      5-min Rain = 0
KPD2 122111Z 03002G8KT 36/11 A2991 RMK A01 T03610114  RH  023%=      5-min Rain = 0
KPD2 122112Z 12008KT 36/11 A2991 RMK A01 T03610114  RH  023%=      5-min Rain = 0
KPD2 122113Z 12007KT 36/11 A2991 RMK A01 T03620114  RH  022%=      5-min Rain = 0
KPD2 122114Z 13006KT 36/11 A2991 RMK A01 T03620114  RH  022%=      5-min Rain = 0
KPD2 122115Z 19001KT 36/11 A2991 RMK A01 T03590108  RH  022%=      5-min Rain = 0
KPD2 122116Z 16001KT 36/11 A2991 RMK A01 T03570110  RH  023%=      5-min Rain = 0
KPD2 122117Z 17004KT 36/11 A2991 RMK A01 T03550112  RH  023%=      5-min Rain = 0
KPD2 122118Z 17006KT 36/12 A2991 RMK A01 T03550117  RH  024%=      5-min Rain = 0
KPD2 122119Z 17009KT 36/12 A2991 RMK A01 T03550118  RH  024%=      5-min Rain = 0
KPD2 122120Z 15009KT 36/12 A2991 RMK A01 T03560117  RH  024%=      5-min Rain = 0
KPD2 122121Z 14010KT 36/12 A2991 RMK A01 T03560115  RH  023%=      5-min Rain = 0
KPD2 122122Z 15006KT 36/11 A2991 RMK A01 T03550114  RH  023%=      5-min Rain = 0
KPD2 122123Z 14007KT 36/12 A2991 RMK A01 T03550117  RH  024%=      5-min Rain = 0
KPD2 122124Z 18005KT 36/11 A2991 RMK A01 T03550113  RH  023%=      5-min Rain = 0
KPD2 122125Z 18006KT 35/12 A2991 RMK A01 T03510115  RH  024%=      5-min Rain = 0
KPD2 122126Z 19008KT 35/12 A2991 RMK A01 T03490115  RH  024%=      5-min Rain = 0
KPD2 122127Z 18006KT 35/12 A299 RMK A01 T03480118  RH  025%=      5-min Rain = 0
KPD2 122128Z 16008KT 35/12 A2991 RMK A01 T03510120  RH  025%=      5-min Rain = 0
KPD2 122129Z 14008G13KT 35/12 A299 RMK A01 T03530119  RH  024%=      5-min Rain = 0
KPD2 122130Z 15010G15KT 36/12 A299 RMK A01 T03550119  RH  024%=      5-min Rain = 0
KPD2 122131Z 16008KT 36/12 A299 RMK A01 T03560119  RH  024%=      5-min Rain = 0
KPD2 122132Z 14012KT 36/12 A299 RMK A01 T03560118  RH  024%=      5-min Rain = 0
KPD2 122133Z 13011KT 35/12 A299 RMK A01 T03540116  RH  024%=      5-min Rain = 0
KPD2 122134Z 13009KT 35/12 A2991 RMK A01 T03540116  RH  024%=      5-min Rain = 0
KPD2 122135Z 14005KT 35/12 A299 RMK A01 T03540116  RH  024%=      5-min Rain = 0
KPD2 122136Z 08003KT 35/12 A299 RMK A01 T03530116  RH  024%=      5-min Rain = 0
KPD2 122137Z 09006KT 35/12 A299 RMK A01 T03530117  RH  024%=      5-min Rain = 0
KPD2 122138Z 09003KT 35/12 A299 RMK A01 T03530116  RH  024%=      5-min Rain = 0
KPD2 122139Z 14008KT 35/12 A299 RMK A01 T03530117  RH  024%=      5-min Rain = 0
KPD2 122140Z 17011KT 35/12 A299 RMK A01 T03540118  RH  024%=      5-min Rain = 0
KPD2 122141Z 15007KT 35/12 A299 RMK A01 T03510116  RH  024%=      5-min Rain = 0
KPD2 122142Z 14005KT 35/12 A299 RMK A01 T03510117  RH  024%=      5-min Rain = 0
KPD2 122143Z 15007KT 35/12 A299 RMK A01 T03520116  RH  024%=      5-min Rain = 0
KPD2 122144Z 13005KT 35/12 A299 RMK A01 T03520116  RH  024%=      5-min Rain = 0
KPD2 122145Z 17004KT 35/12 A299 RMK A01 T03530118  RH  024%=      5-min Rain = 0
KPD2 122146Z 17004KT 35/12 A299 RMK A01 T03530119  RH  024%=      5-min Rain = 0
KPD2 122147Z 14007G12KT 35/12 A299 RMK A01 T03520119  RH  025%=      5-min Rain = 0
KPD2 122148Z 16007KT 35/12 A299 RMK A01 T03510117  RH  024%=      5-min Rain = 0
KPD2 122149Z 14006KT 35/12 A299 RMK A01 T03510117  RH  024%=      5-min Rain = 0
KPD2 122150Z 12007KT 35/12 A299 RMK A01 T03510117  RH  024%=      5-min Rain = 0
KPD2 122151Z 12004KT 35/12 A299 RMK A01 T03530117  RH  024%=      5-min Rain = 0
KPD2 122152Z 12003KT 35/12 A299 RMK A01 T03540115  RH  024%=      5-min Rain = 0
KPD2 122153Z 14005KT 35/12 A299 RMK A01 T03540118  RH  024%=      5-min Rain = 0
KPD2 122154Z 16004KT 36/12 A299 RMK A01 T03550116  RH  024%=      5-min Rain = 0
KPD2 122155Z 14004KT 35/12 A299 RMK A01 T03540116  RH  024%=      5-min Rain = 0
KPD2 122156Z 16006KT 35/12 A299 RMK A01 T03540118  RH  024%=      5-min Rain = 0
KPD2 122157Z 16004KT 35/12 A299 RMK A01 T03530120  RH  024%=      5-min Rain = 0
KPD2 122158Z 17006KT 35/12 A299 RMK A01 T03520121  RH  025%=      5-min Rain = 0
KPD2 122159Z 17006KT 35/12 A299 RMK A01 T03530121  RH  025%=      5-min Rain = 0
KPD2 122200Z 15006KT 35/12 A299 RMK A01 T03510121  RH  025%=      5-min Rain = 0
KPD2 122201Z 14008KT 35/12 A299 RMK A01 T03530120  RH  025%=      5-min Rain = 0
KPD2 122202Z 13008KT 35/12 A299 RMK A01 T03540120  RH  024%=      5-min Rain = 0
KPD2 122203Z 14008KT 36/12 A299 RMK A01 T03560119  RH  024%=      5-min Rain = 0
KPD2 122204Z 13006KT 36/12 A299 RMK A01 T03570118  RH  024%=      5-min Rain = 0
KPD2 122205Z 15007KT 36/12 A299 RMK A01 T03570118  RH  024%=      5-min Rain = 0
KPD2 122206Z 15004KT 36/12 A299 RMK A01 T03570118  RH  024%=      5-min Rain = 0
KPD2 122207Z 14008KT 36/12 A299 RMK A01 T03550117  RH  024%=      5-min Rain = 0
KPD2 122208Z 15006KT 35/12 A299 RMK A01 T03530116  RH  024%=      5-min Rain = 0
KPD2 122209Z 14004KT 35/12 A299 RMK A01 T03520117  RH  024%=      5-min Rain = 0
KPD2 122210Z 18002KT 35/12 A299 RMK A01 T03510118  RH  024%=      5-min Rain = 0
KPD2 122211Z 15008KT 35/12 A299 RMK A01 T03510120  RH  025%=      5-min Rain = 0
KPD2 122212Z 15006KT 35/12 A299 RMK A01 T03500117  RH  024%=      5-min Rain = 0
KPD2 122213Z 16007KT 35/12 A299 RMK A01 T03490117  RH  025%=      5-min Rain = 0
KPD2 122214Z 15006KT 35/12 A299 RMK A01 T03470117  RH  025%=      5-min Rain = 0
KPD2 122215Z 16006KT 35/12 A299 RMK A01 T03470117  RH  025%=      5-min Rain = 0
KPD2 122216Z 15007KT 35/12 A299 RMK A01 T03480119  RH  025%=      5-min Rain = 0
KPD2 122217Z 15006KT 35/12 A299 RMK A01 T03480120  RH  025%=      5-min Rain = 0
KPD2 122218Z 12010KT 35/12 A299 RMK A01 T03480124  RH  026%=      5-min Rain = 0
KPD2 122219Z 12010KT 35/13 A299 RMK A01 T03500125  RH  026%=      5-min Rain = 0
KPD2 122220Z 12010KT 35/13 A299 RMK A01 T03500125  RH  026%=      5-min Rain = 0
KPD2 122221Z 11012KT 35/13 A299 RMK A01 T03500125  RH  026%=      5-min Rain = 0
KPD2 122222Z 10011KT 35/12 A299 RMK A01 T03480124  RH  026%=      5-min Rain = 0
KPD2 122223Z 09009KT 35/12 A299 RMK A01 T03450124  RH  026%=      5-min Rain = 0
KPD2 122224Z 11005G11KT 34/13 A299 RMK A01 T03430126  RH  027%=      5-min Rain = 0
KPD2 122225Z 10007KT 34/13 A299 RMK A01 T03440126  RH  027%=      5-min Rain = 0
KPD2 122226Z 10008KT 35/13 A299 RMK A01 T03450125  RH  026%=      5-min Rain = 0
KPD2 122227Z 12007KT 35/13 A299 RMK A01 T03450125  RH  026%=      5-min Rain = 0
KPD2 122228Z 13008KT 35/13 A299 RMK A01 T03460126  RH  026%=      5-min Rain = 0
KPD2 122229Z 14009KT 35/13 A299 RMK A01 T03480127  RH  026%=      5-min Rain = 0
KPD2 122230Z 14010KT 35/13 A299 RMK A01 T03490125  RH  026%=      5-min Rain = 0
KPD2 122231Z 14008KT 35/13 A299 RMK A01 T03470125  RH  026%=      5-min Rain = 0
KPD2 122232Z 15008KT 35/13 A299 RMK A01 T03450125  RH  026%=      5-min Rain = 0
KPD2 122233Z 16009KT 34/13 A299 RMK A01 T03430125  RH  027%=      5-min Rain = 0
KPD2 122234Z 15008KT 34/13 A299 RMK A01 T03420125  RH  027%=      5-min Rain = 0
KPD2 122235Z 14011KT 34/13 A299 RMK A01 T03410125  RH  027%=      5-min Rain = 0
KPD2 122236Z 15010KT 34/13 A299 RMK A01 T03410126  RH  027%=      5-min Rain = 0
KPD2 122237Z 14011G17KT 34/13 A299 RMK A01 T03400127  RH  028%=      5-min Rain = 0
KPD2 122238Z 12008G15KT 34/13 A299 RMK A01 T03400128  RH  028%=      5-min Rain = 0
KPD2 122239Z 12007KT 34/13 A299 RMK A01 T03410129  RH  028%=      5-min Rain = 0
KPD2 122240Z 12008KT 34/13 A299 RMK A01 T03430129  RH  027%=      5-min Rain = 0
KPD2 122241Z 13011KT 34/13 A299 RMK A01 T03440129  RH  027%=      5-min Rain = 0
KPD2 122242Z 13008KT 35/13 A299 RMK A01 T03450128  RH  027%=      5-min Rain = 0
KPD2 122243Z 10009KT 34/13 A299 RMK A01 T03440127  RH  027%=      5-min Rain = 0
KPD2 122244Z 09007KT 34/13 A299 RMK A01 T03430127  RH  027%=      5-min Rain = 0
KPD2 122245Z 13007KT 34/13 A299 RMK A01 T03410128  RH  028%=      5-min Rain = 0
KPD2 122246Z 12008KT 34/13 A299 RMK A01 T03410127  RH  027%=      5-min Rain = 0
KPD2 122247Z 12006KT 34/13 A299 RMK A01 T03410127  RH  027%=      5-min Rain = 0
KPD2 122248Z 13008KT 34/13 A299 RMK A01 T03420128  RH  027%=      5-min Rain = 0
KPD2 122249Z 13007G12KT 34/13 A299 RMK A01 T03420129  RH  028%=      5-min Rain = 0
KPD2 122250Z 12010KT 34/13 A299 RMK A01 T03420129  RH  028%=      5-min Rain = 0
KPD2 122251Z 14009KT 34/13 A299 RMK A01 T03410130  RH  028%=      5-min Rain = 0
KPD2 122252Z 13009KT 34/13 A299 RMK A01 T03410129  RH  028%=      5-min Rain = 0
KPD2 122253Z 13009KT 34/13 A299 RMK A01 T03390130  RH  028%=      5-min Rain = 0
KPD2 122254Z 14012KT 34/13 A299 RMK A01 T03380129  RH  028%=      5-min Rain = 0
KPD2 122255Z 13009G14KT 34/13 A299 RMK A01 T03360129  RH  029%=      5-min Rain = 0
KPD2 122256Z 14010KT 34/13 A299 RMK A01 T03360130  RH  029%=      5-min Rain = 0
KPD2 122257Z 14008KT 34/13 A299 RMK A01 T03360130  RH  029%=      5-min Rain = 0
KPD2 122258Z 14010KT 34/13 A299 RMK A01 T03360130  RH  029%=      5-min Rain = 0
KPD2 122259Z 14010KT 34/13 A299 RMK A01 T03350130  RH  029%=      5-min Rain = 0
KPD2 122300Z 14011KT 34/13 A299 RMK A01 T03350130  RH  029%=      5-min Rain = 0
KPD2 122301Z 14010KT 33/13 A299 RMK A01 T03330128  RH  029%=      5-min Rain = 0
KPD2 122302Z 14008KT 33/13 A299 RMK A01 T03320129  RH  029%=      5-min Rain = 0
KPD2 122303Z 13008KT 33/13 A299 RMK A01 T03320129  RH  029%=      5-min Rain = 0
KPD2 122304Z 12009KT 33/13 A299 RMK A01 T03330131  RH  029%=      5-min Rain = 0
KPD2 122305Z 13008G13KT 34/13 A299 RMK A01 T03350132  RH  029%=      5-min Rain = 0
KPD2 122306Z 13009KT 34/13 A299 RMK A01 T03360132  RH  029%=      5-min Rain = 0
KPD2 122307Z 15010KT 34/13 A299 RMK A01 T03360131  RH  029%=      5-min Rain = 0
KPD2 122308Z 15009KT 34/13 A299 RMK A01 T03350131  RH  029%=      5-min Rain = 0
KPD2 122309Z 13009KT 33/13 A299 RMK A01 T03330130  RH  029%=      5-min Rain = 0
KPD2 122310Z 14007KT 33/13 A299 RMK A01 T03330130  RH  029%=      5-min Rain = 0
KPD2 122311Z 16009KT 33/13 A299 RMK A01 T03320130  RH  029%=      5-min Rain = 0
KPD2 122312Z 14008KT 33/13 A299 RMK A01 T03330131  RH  030%=      5-min Rain = 0
KPD2 122313Z 14010KT 33/13 A299 RMK A01 T03320130  RH  029%=      5-min Rain = 0
KPD2 122314Z 14010KT 33/13 A299 RMK A01 T03310131  RH  030%=      5-min Rain = 0
KPD2 122315Z 14011KT 33/13 A299 RMK A01 T03310130  RH  030%=      5-min Rain = 0
KPD2 122316Z 14009G15KT 33/13 A299 RMK A01 T03300131  RH  030%=      5-min Rain = 0
KPD2 122317Z 14011KT 33/13 A299 RMK A01 T03300130  RH  030%=      5-min Rain = 0
KPD2 122318Z 14011KT 33/13 A299 RMK A01 T03280129  RH  030%=      5-min Rain = 0
KPD2 122319Z 15009KT 33/13 A299 RMK A01 T03280129  RH  030%=      5-min Rain = 0
KPD2 122320Z 14008KT 33/13 A299 RMK A01 T03270128  RH  030%=      5-min Rain = 0
KPD2 122321Z 14008G14KT 33/13 A299 RMK A01 T03260128  RH  030%=      5-min Rain = 0
KPD2 122322Z 14012KT 33/13 A299 RMK A01 T03270127  RH  030%=      5-min Rain = 0
KPD2 122323Z 14011KT 33/13 A299 RMK A01 T03260126  RH  030%=      5-min Rain = 0
KPD2 122324Z 14010KT 33/13 A299 RMK A01 T03260126  RH  030%=      5-min Rain = 0
KPD2 122325Z 14010KT 33/13 A299 RMK A01 T03250127  RH  030%=      5-min Rain = 0
KPD2 122326Z 13010KT 32/13 A299 RMK A01 T03240128  RH  030%=      5-min Rain = 0
KPD2 122327Z 13013KT 33/13 A299 RMK A01 T03250129  RH  030%=      5-min Rain = 0
KPD2 122328Z 14011KT 33/13 A299 RMK A01 T03260129  RH  030%=      5-min Rain = 0
KPD2 122329Z 14010KT 33/13 A299 RMK A01 T03250129  RH  030%=      5-min Rain = 0
KPD2 122330Z 14009KT 32/13 A299 RMK A01 T03240129  RH  031%=      5-min Rain = 0
KPD2 122331Z 14011KT 32/13 A299 RMK A01 T03230128  RH  031%=      5-min Rain = 0
KPD2 122332Z 14011KT 32/13 A299 RMK A01 T03220128  RH  031%=      5-min Rain = 0
KPD2 122333Z 14006KT 32/13 A299 RMK A01 T03210128  RH  031%=      5-min Rain = 0
KPD2 122334Z 14010KT 32/13 A299 RMK A01 T03220130  RH  031%=      5-min Rain = 0
KPD2 122335Z 14008KT 32/13 A299 RMK A01 T03220128  RH  031%=      5-min Rain = 0
KPD2 122336Z 14007KT 32/13 A299 RMK A01 T03220129  RH  031%=      5-min Rain = 0
KPD2 122337Z 15006KT 32/13 A299 RMK A01 T03210129  RH  031%=      5-min Rain = 0
KPD2 122338Z 14007KT 32/13 A299 RMK A01 T03220130  RH  031%=      5-min Rain = 0
KPD2 122339Z 15009KT 32/13 A299 RMK A01 T03220129  RH  031%=      5-min Rain = 0
KPD2 122340Z 14009KT 32/13 A299 RMK A01 T03220129  RH  031%=      5-min Rain = 0
KPD2 122341Z 14010KT 32/13 A299 RMK A01 T03210129  RH  031%=      5-min Rain = 0
KPD2 122342Z 14009KT 32/13 A299 RMK A01 T03200128  RH  031%=      5-min Rain = 0
KPD2 122343Z 15011KT 32/13 A299 RMK A01 T03200127  RH  031%=      5-min Rain = 0
KPD2 122344Z 15010KT 32/13 A299 RMK A01 T03190127  RH  031%=      5-min Rain = 0
KPD2 122345Z 15008G13KT 32/13 A299 RMK A01 T03170128  RH  031%=      5-min Rain = 0
KPD2 122346Z 15010KT 32/13 A299 RMK A01 T03170127  RH  031%=      5-min Rain = 0
KPD2 122347Z 15007KT 32/13 A299 RMK A01 T03160127  RH  032%=      5-min Rain = 0
KPD2 122348Z 15007KT 32/13 A299 RMK A01 T03160128  RH  032%=      5-min Rain = 0
KPD2 122349Z 14008KT 32/13 A299 RMK A01 T03160128  RH  032%=      5-min Rain = 0
KPD2 122350Z 15008KT 32/13 A299 RMK A01 T03160128  RH  032%=      5-min Rain = 0
KPD2 122351Z 15009KT 32/13 A299 RMK A01 T03160128  RH  032%=      5-min Rain = 0
KPD2 122352Z 15010KT 32/13 A299 RMK A01 T03160127  RH  032%=      5-min Rain = 0
KPD2 122353Z 14007KT 32/13 A299 RMK A01 T03150128  RH  032%=      5-min Rain = 0
KPD2 122354Z 14009KT 31/13 A299 RMK A01 T03140128  RH  032%=      5-min Rain = 0
KPD2 122355Z 15009KT 31/13 A299 RMK A01 T03140128  RH  032%=      5-min Rain = 0
KPD2 122356Z 15008KT 31/13 A299 RMK A01 T03130128  RH  032%=      5-min Rain = 0
KPD2 122357Z 14007KT 31/13 A299 RMK A01 T03130129  RH  032%=      5-min Rain = 0
KPD2 122358Z 15007KT 31/13 A299 RMK A01 T03120128  RH  032%=      5-min Rain = 0
KPD2 122359Z 15006KT 31/13 A299 RMK A01 T03120128  RH  032%=      5-min Rain = 0
KPD2 130000Z 14008KT 31/13 A299 RMK A01 T03120128  RH  033%=      5-min Rain = 0
KPD2 130001Z 14007KT 31/13 A299 RMK A01 T03120129  RH  033%=      5-min Rain = 0
KPD2 130002Z 14007KT 31/13 A299 RMK A01 T03110129  RH  033%=      5-min Rain = 0
KPD2 130003Z 14008KT 31/13 A299 RMK A01 T03110130  RH  033%=      5-min Rain = 0
KPD2 130004Z 14009KT 31/13 A299 RMK A01 T03110129  RH  033%=      5-min Rain = 0
KPD2 130005Z 14012KT 31/13 A299 RMK A01 T03100128  RH  033%=      5-min Rain = 0
KPD2 130006Z 13010KT 31/13 A299 RMK A01 T03090127  RH  033%=      5-min Rain = 0
KPD2 130007Z 14010KT 31/13 A299 RMK A01 T03080128  RH  033%=      5-min Rain = 0
KPD2 130008Z 14010KT 31/13 A299 RMK A01 T03080127  RH  033%=      5-min Rain = 0
KPD2 130009Z 13010KT 31/13 A299 RMK A01 T03070127  RH  033%=      5-min Rain = 0
KPD2 130010Z 14010KT 31/13 A299 RMK A01 T03070127  RH  033%=      5-min Rain = 0
KPD2 130011Z 14010KT 31/13 A299 RMK A01 T03060126  RH  033%=      5-min Rain = 0
KPD2 130012Z 14010KT 31/13 A299 RMK A01 T03060126  RH  033%=      5-min Rain = 0
KPD2 130013Z 14007KT 31/13 A299 RMK A01 T03060126  RH  033%=      5-min Rain = 0
KPD2 130014Z 14007KT 31/13 A299 RMK A01 T03050127  RH  033%=      5-min Rain = 0
KPD2 130015Z 15009KT 31/13 A299 RMK A01 T03050127  RH  034%=      5-min Rain = 0
KPD2 130016Z 14008KT 31/13 A299 RMK A01 T03050127  RH  034%=      5-min Rain = 0
KPD2 130017Z 15006KT 31/13 A299 RMK A01 T03050127  RH  034%=      5-min Rain = 0
KPD2 130018Z 14005KT 30/13 A299 RMK A01 T03040127  RH  034%=      5-min Rain = 0
KPD2 130019Z 14007KT 30/13 A299 RMK A01 T03030128  RH  034%=      5-min Rain = 0
KPD2 130020Z 13007KT 30/13 A299 RMK A01 T03030127  RH  034%=      5-min Rain = 0
KPD2 130021Z 14006KT 30/13 A299 RMK A01 T03030128  RH  034%=      5-min Rain = 0
KPD2 130022Z 14006KT 30/13 A299 RMK A01 T03020128  RH  034%=      5-min Rain = 0
KPD2 130023Z 14006KT 30/13 A299 RMK A01 T03010128  RH  035%=      5-min Rain = 0
KPD2 130024Z 14007KT 30/13 A299 RMK A01 T03010127  RH  035%=      5-min Rain = 0
KPD2 130025Z 14007KT 30/13 A299 RMK A01 T03000128  RH  035%=      5-min Rain = 0
KPD2 130026Z 14008KT 30/13 A299 RMK A01 T03000127  RH  035%=      5-min Rain = 0
KPD2 130027Z 14008KT 30/13 A299 RMK A01 T02990127  RH  035%=      5-min Rain = 0
KPD2 130028Z 14009KT 30/13 A299 RMK A01 T02990127  RH  035%=      5-min Rain = 0
KPD2 130029Z 14007KT 30/13 A299 RMK A01 T02980127  RH  035%=      5-min Rain = 0
KPD2 130030Z 13006KT 30/13 A299 RMK A01 T02980127  RH  035%=      5-min Rain = 0
KPD2 130031Z 13009KT 30/13 A299 RMK A01 T02970127  RH  035%=      5-min Rain = 0
KPD2 130032Z 14007KT 30/13 A299 RMK A01 T02970127  RH  035%=      5-min Rain = 0
KPD2 130033Z 13008KT 30/13 A299 RMK A01 T02960127  RH  035%=      5-min Rain = 0
KPD2 130034Z 14007KT 30/13 A299 RMK A01 T02960126  RH  035%=      5-min Rain = 0
KPD2 130035Z 13006KT 30/13 A299 RMK A01 T02960126  RH  035%=      5-min Rain = 0
KPD2 130036Z 14007KT 30/13 A299 RMK A01 T02950126  RH  035%=      5-min Rain = 0
KPD2 130037Z 13008KT 30/13 A299 RMK A01 T02950126  RH  035%=      5-min Rain = 0
KPD2 130038Z 14007KT 29/13 A299 RMK A01 T02940127  RH  036%=      5-min Rain = 0
KPD2 130039Z 13006KT 29/13 A299 RMK A01 T02940126  RH  036%=      5-min Rain = 0
KPD2 130040Z 14008KT 29/13 A299 RMK A01 T02930126  RH  036%=      5-min Rain = 0
KPD2 130041Z 14007KT 29/13 A299 RMK A01 T02930126  RH  036%=      5-min Rain = 0
KPD2 130042Z 15006KT 29/13 A299 RMK A01 T02920127  RH  036%=      5-min Rain = 0
KPD2 130043Z 14008KT 29/13 A299 RMK A01 T02910127  RH  036%=      5-min Rain = 0
KPD2 130044Z 14009KT 29/13 A299 RMK A01 T02900126  RH  036%=      5-min Rain = 0
KPD2 130045Z 13008KT 29/13 A299 RMK A01 T02900125  RH  036%=      5-min Rain = 0
KPD2 130046Z 14007KT 29/13 A299 RMK A01 T02910126  RH  036%=      5-min Rain = 0
KPD2 130047Z 14007KT 29/13 A299 RMK A01 T02900126  RH  036%=      5-min Rain = 0
KPD2 130048Z 14007KT 29/13 A299 RMK A01 T02900126  RH  036%=      5-min Rain = 0
KPD2 130049Z 14007KT 29/13 A299 RMK A01 T02890126  RH  037%=      5-min Rain = 0
KPD2 130050Z 14008KT 29/13 A299 RMK A01 T02890126  RH  037%=      5-min Rain = 0
KPD2 130051Z 14008KT 29/13 A299 RMK A01 T02880126  RH  037%=      5-min Rain = 0
KPD2 130052Z 14008KT 29/13 A299 RMK A01 T02880126  RH  037%=      5-min Rain = 0
KPD2 130053Z 14008KT 29/13 A299 RMK A01 T02870126  RH  037%=      5-min Rain = 0
KPD2 130054Z 14006KT 29/13 A299 RMK A01 T02870126  RH  037%=      5-min Rain = 0
KPD2 130055Z 13006KT 29/13 A299 RMK A01 T02870126  RH  037%=      5-min Rain = 0
KPD2 130056Z 14006KT 29/13 A2991 RMK A01 T02860126  RH  037%=      5-min Rain = 0
KPD2 130057Z 14006KT 29/13 A2991 RMK A01 T02860126  RH  037%=      5-min Rain = 0
KPD2 130058Z 14006KT 29/13 A2991 RMK A01 T02850127  RH  038%=      5-min Rain = 0
KPD2 130059Z 14006KT 28/13 A2991 RMK A01 T02840126  RH  038%=      5-min Rain = 0
KPD2 130100Z 14005KT 28/13 A2991 RMK A01 T02840126  RH  038%=      5-min Rain = 0
KPD2 130101Z 14006KT 28/13 A2991 RMK A01 T02830126  RH  038%=      5-min Rain = 0
KPD2 130102Z 14005KT 28/13 A2991 RMK A01 T02820126  RH  038%=      5-min Rain = 0
KPD2 130103Z 14006KT 28/13 A2991 RMK A01 T02820126  RH  038%=      5-min Rain = 0
KPD2 130104Z 14005KT 28/13 A2991 RMK A01 T02810126  RH  038%=      5-min Rain = 0
KPD2 130105Z 14005KT 28/13 A2991 RMK A01 T02800126  RH  039%=      5-min Rain = 0
KPD2 130106Z 13007KT 28/13 A2991 RMK A01 T02790126  RH  039%=      5-min Rain = 0
KPD2 130107Z 13006KT 28/13 A2991 RMK A01 T02800126  RH  039%=      5-min Rain = 0
KPD2 130108Z 14005KT 28/13 A2991 RMK A01 T02790126  RH  039%=      5-min Rain = 0
KPD2 130109Z 14005KT 28/13 A2991 RMK A01 T02790126  RH  039%=      5-min Rain = 0
KPD2 130110Z 14006KT 28/13 A2991 RMK A01 T02790126  RH  039%=      5-min Rain = 0
KPD2 130111Z 14005KT 28/13 A2991 RMK A01 T02780126  RH  039%=      5-min Rain = 0
KPD2 130112Z 13006KT 28/13 A2991 RMK A01 T02780127  RH  039%=      5-min Rain = 0
KPD2 130113Z 13006KT 28/13 A2991 RMK A01 T02780127  RH  039%=      5-min Rain = 0
KPD2 130114Z 13005KT 28/13 A2991 RMK A01 T02780127  RH  039%=      5-min Rain = 0
KPD2 130115Z 13005KT 28/13 A2991 RMK A01 T02780127  RH  039%=      5-min Rain = 0
KPD2 130116Z 15005KT 28/13 A2991 RMK A01 T02770127  RH  039%=      5-min Rain = 0
KPD2 130117Z 14006KT 28/13 A2991 RMK A01 T02770127  RH  039%=      5-min Rain = 0
KPD2 130118Z 14006KT 28/13 A2991 RMK A01 T02770127  RH  040%=      5-min Rain = 0
KPD2 130119Z 14006KT 28/13 A2991 RMK A01 T02760127  RH  040%=      5-min Rain = 0
KPD2 130120Z 13006KT 28/13 A2991 RMK A01 T02750127  RH  040%=      5-min Rain = 0
KPD2 130121Z 13006KT 28/13 A2991 RMK A01 T02750128  RH  040%=      5-min Rain = 0
KPD2 130122Z 13006KT 28/13 A2991 RMK A01 T02750128  RH  040%=      5-min Rain = 0
KPD2 130123Z 14005KT 27/13 A2991 RMK A01 T02740128  RH  040%=      5-min Rain = 0
KPD2 130124Z 14005KT 27/13 A2991 RMK A01 T02740128  RH  040%=      5-min Rain = 0
KPD2 130125Z 13005KT 27/13 A2991 RMK A01 T02730128  RH  041%=      5-min Rain = 0
KPD2 130126Z 13005KT 27/13 A2991 RMK A01 T02730128  RH  041%=      5-min Rain = 0
KPD2 130127Z 14005KT 27/13 A2991 RMK A01 T02720127  RH  041%=      5-min Rain = 0
KPD2 130128Z 14005KT 27/13 A2991 RMK A01 T02720127  RH  041%=      5-min Rain = 0
KPD2 130129Z 13006KT 27/13 A2991 RMK A01 T02720127  RH  041%=      5-min Rain = 0
KPD2 130130Z 14006KT 27/13 A2991 RMK A01 T02710127  RH  041%=      5-min Rain = 0
KPD2 130131Z 13005KT 27/13 A2991 RMK A01 T02710127  RH  041%=      5-min Rain = 0
KPD2 130132Z 13006KT 27/13 A2991 RMK A01 T02710127  RH  041%=      5-min Rain = 0
KPD2 130133Z 13006KT 27/13 A2991 RMK A01 T02710127  RH  041%=      5-min Rain = 0
KPD2 130134Z 13006KT 27/13 A2991 RMK A01 T02700127  RH  041%=      5-min Rain = 0
KPD2 130135Z 13006KT 27/13 A2991 RMK A01 T02700127  RH  041%=      5-min Rain = 0
KPD2 130136Z 13007KT 27/13 A2991 RMK A01 T02700126  RH  041%=      5-min Rain = 0
KPD2 130137Z 13007KT 27/13 A2991 RMK A01 T02690127  RH  041%=      5-min Rain = 0
KPD2 130138Z 13006KT 27/13 A2991 RMK A01 T02690127  RH  041%=      5-min Rain = 0
KPD2 130139Z 13006KT 27/13 A2991 RMK A01 T02690127  RH  041%=      5-min Rain = 0
KPD2 130140Z 12005KT 27/13 A2991 RMK A01 T02690126  RH  041%=      5-min Rain = 0
KPD2 130141Z 13006KT 27/13 A2991 RMK A01 T02680126  RH  041%=      5-min Rain = 0
KPD2 130142Z 13006KT 27/13 A2991 RMK A01 T02680126  RH  041%=      5-min Rain = 0
KPD2 130143Z 12006KT 27/13 A2991 RMK A01 T02670126  RH  042%=      5-min Rain = 0
KPD2 130144Z 13006KT 27/13 A2991 RMK A01 T02670126  RH  042%=      5-min Rain = 0
KPD2 130145Z 13007KT 27/13 A2991 RMK A01 T02670126  RH  042%=      5-min Rain = 0
KPD2 130146Z 13007KT 27/13 A2991 RMK A01 T02670126  RH  041%=      5-min Rain = 0
KPD2 130147Z 13006KT 27/13 A2991 RMK A01 T02670125  RH  041%=      5-min Rain = 0
KPD2 130148Z 13006KT 27/13 A2991 RMK A01 T02670126  RH  041%=      5-min Rain = 0
KPD2 130149Z 13006KT 27/13 A2991 RMK A01 T02670125  RH  041%=      5-min Rain = 0
KPD2 130150Z 13007KT 27/13 A2991 RMK A01 T02670125  RH  041%=      5-min Rain = 0
KPD2 130151Z 13006KT 27/13 A2992 RMK A01 T02660125  RH  041%=      5-min Rain = 0
KPD2 130152Z 13005KT 27/13 A2992 RMK A01 T02670125  RH  041%=      5-min Rain = 0
KPD2 130153Z 13006KT 27/13 A2992 RMK A01 T02670125  RH  041%=      5-min Rain = 0
KPD2 130154Z 13006KT 27/13 A2992 RMK A01 T02670125  RH  041%=      5-min Rain = 0
KPD2 130155Z 13005KT 27/13 A2992 RMK A01 T02660125  RH  041%=      5-min Rain = 0
KPD2 130156Z 13005KT 27/13 A2992 RMK A01 T02670125  RH  041%=      5-min Rain = 0
KPD2 130157Z 14005KT 27/13 A2992 RMK A01 T02660125  RH  042%=      5-min Rain = 0
KPD2 130158Z 14005KT 27/13 A2992 RMK A01 T02660125  RH  042%=      5-min Rain = 0
KPD2 130159Z 14004KT 27/13 A2992 RMK A01 T02650125  RH  042%=      5-min Rain = 0
KPD2 130200Z 14003KT 27/13 A2992 RMK A01 T02650125  RH  042%=      5-min Rain = 0
KPD2 130201Z 14004KT 26/13 A2992 RMK A01 T02640125  RH  042%=      5-min Rain = 0
KPD2 130202Z 13005KT 26/13 A2992 RMK A01 T02630125  RH  042%=      5-min Rain = 0
KPD2 130203Z 14004KT 26/13 A2992 RMK A01 T02630125  RH  042%=      5-min Rain = 0
KPD2 130204Z 14004KT 26/13 A2992 RMK A01 T02620125  RH  043%=      5-min Rain = 0
KPD2 130205Z 14004KT 26/13 A2992 RMK A01 T02620125  RH  043%=      5-min Rain = 0
KPD2 130206Z 14004KT 26/13 A2992 RMK A01 T02610125  RH  043%=      5-min Rain = 0
KPD2 130207Z 15004KT 26/13 A2992 RMK A01 T02600126  RH  043%=      5-min Rain = 0
KPD2 130208Z 13005KT 26/13 A2992 RMK A01 T02590125  RH  043%=      5-min Rain = 0
KPD2 130209Z 14005KT 26/13 A2993 RMK A01 T02590125  RH  043%=      5-min Rain = 0
KPD2 130210Z 14005KT 26/13 A2993 RMK A01 T02590125  RH  043%=      5-min Rain = 0
KPD2 130211Z 15004KT 26/12 A2993 RMK A01 T02580124  RH  043%=      5-min Rain = 0
KPD2 130212Z 14005KT 26/13 A2993 RMK A01 T02580125  RH  043%=      5-min Rain = 0
KPD2 130213Z 14005KT 26/13 A2993 RMK A01 T02580125  RH  043%=      5-min Rain = 0
KPD2 130214Z 14005KT 26/12 A2993 RMK A01 T02570124  RH  043%=      5-min Rain = 0
KPD2 130215Z 14004KT 26/12 A2993 RMK A01 T02570124  RH  044%=      5-min Rain = 0
KPD2 130216Z 15004KT 26/12 A2993 RMK A01 T02570124  RH  043%=      5-min Rain = 0
KPD2 130217Z 14005KT 26/12 A2993 RMK A01 T02570124  RH  043%=      5-min Rain = 0
KPD2 130218Z 14004KT 26/12 A2993 RMK A01 T02580124  RH  044%=      5-min Rain = 0
KPD2 130219Z 13005KT 26/12 A2993 RMK A01 T02570124  RH  044%=      5-min Rain = 0
KPD2 130220Z 13004KT 26/13 A2993 RMK A01 T02570125  RH  044%=      5-min Rain = 0
KPD2 130221Z 13004KT 26/13 A2993 RMK A01 T02560125  RH  044%=      5-min Rain = 0
KPD2 130222Z 13004KT 26/13 A2993 RMK A01 T02550126  RH  044%=      5-min Rain = 0
KPD2 130223Z 12004KT 25/13 A2993 RMK A01 T02540125  RH  045%=      5-min Rain = 0
KPD2 130224Z 12005KT 25/13 A2993 RMK A01 T02530125  RH  045%=      5-min Rain = 0
KPD2 130225Z 12005KT 25/12 A2993 RMK A01 T02520124  RH  045%=      5-min Rain = 0
KPD2 130226Z 12004KT 25/12 A2993 RMK A01 T02520124  RH  045%=      5-min Rain = 0
KPD2 130227Z 12004KT 25/12 A2993 RMK A01 T02510124  RH  045%=      5-min Rain = 0
KPD2 130228Z 12004KT 25/12 A2993 RMK A01 T02500123  RH  045%=      5-min Rain = 0
KPD2 130229Z 12005KT 25/12 A2993 RMK A01 T02500123  RH  045%=      5-min Rain = 0
KPD2 130230Z 12004KT 25/12 A2993 RMK A01 T02500122  RH  045%=      5-min Rain = 0
KPD2 130231Z 12005KT 25/12 A2993 RMK A01 T02500122  RH  045%=      5-min Rain = 0
KPD2 130232Z 12004KT 25/12 A2993 RMK A01 T02500122  RH  045%=      5-min Rain = 0
KPD2 130233Z 12004KT 25/12 A2993 RMK A01 T02500122  RH  045%=      5-min Rain = 0
KPD2 130234Z 12004KT 25/12 A2993 RMK A01 T02500122  RH  045%=      5-min Rain = 0
KPD2 130235Z 11004KT 25/12 A2993 RMK A01 T02500121  RH  045%=      5-min Rain = 0
KPD2 130236Z 11003KT 25/12 A2993 RMK A01 T02510122  RH  044%=      5-min Rain = 0
KPD2 130237Z 14003KT 25/12 A2993 RMK A01 T02520122  RH  044%=      5-min Rain = 0
KPD2 130238Z 14003KT 25/12 A2993 RMK A01 T02530123  RH  044%=      5-min Rain = 0
KPD2 130239Z 15005KT 25/12 A2993 RMK A01 T02520123  RH  045%=      5-min Rain = 0
KPD2 130240Z 15005KT 25/12 A2993 RMK A01 T02510124  RH  045%=      5-min Rain = 0
KPD2 130241Z 14004KT 25/12 A2993 RMK A01 T02500123  RH  045%=      5-min Rain = 0
KPD2 130242Z 14005KT 25/12 A2993 RMK A01 T02500123  RH  045%=      5-min Rain = 0
KPD2 130243Z 14005KT 25/12 A2993 RMK A01 T02490123  RH  045%=      5-min Rain = 0
KPD2 130244Z 14004KT 25/12 A2993 RMK A01 T02490123  RH  045%=      5-min Rain = 0
KPD2 130245Z 14003KT 25/12 A2993 RMK A01 T02480123  RH  046%=      5-min Rain = 0
KPD2 130246Z 14003KT 25/12 A2993 RMK A01 T02470123  RH  046%=      5-min Rain = 0
KPD2 130247Z 14003KT 25/12 A2993 RMK A01 T02470123  RH  046%=      5-min Rain = 0
KPD2 130248Z 14003KT 25/12 A2993 RMK A01 T02460123  RH  046%=      5-min Rain = 0
KPD2 130249Z 14004KT 25/12 A2993 RMK A01 T02460123  RH  046%=      5-min Rain = 0
KPD2 130250Z 13003KT 25/12 A2994 RMK A01 T02450123  RH  047%=      5-min Rain = 0
KPD2 130251Z 13004KT 24/12 A2994 RMK A01 T02440123  RH  047%=      5-min Rain = 0
KPD2 130252Z 12003KT 24/12 A2994 RMK A01 T02430123  RH  047%=      5-min Rain = 0
KPD2 130253Z 12003KT 24/12 A2994 RMK A01 T02420123  RH  047%=      5-min Rain = 0
KPD2 130254Z 13003KT 24/12 A2994 RMK A01 T02410123  RH  048%=      5-min Rain = 0
KPD2 130255Z 14004KT 24/12 A2994 RMK A01 T02400123  RH  048%=      5-min Rain = 0
KPD2 130256Z 14004KT 24/12 A2994 RMK A01 T02390122  RH  048%=      5-min Rain = 0
KPD2 130257Z 14003KT 24/12 A2994 RMK A01 T02390122  RH  048%=      5-min Rain = 0
KPD2 130258Z 14004KT 24/12 A2994 RMK A01 T02380123  RH  048%=      5-min Rain = 0
KPD2 130259Z 14004KT 24/12 A2994 RMK A01 T02380122  RH  048%=      5-min Rain = 0
KPD2 130300Z 14003KT 24/12 A2994 RMK A01 T02380122  RH  048%=      5-min Rain = 0
KPD2 130301Z 13004KT 24/12 A2994 RMK A01 T02380122  RH  048%=      5-min Rain = 0
KPD2 130302Z 12003KT 24/12 A2994 RMK A01 T02380123  RH  048%=      5-min Rain = 0
KPD2 130303Z 12003KT 24/12 A2994 RMK A01 T02370122  RH  048%=      5-min Rain = 0
KPD2 130304Z 13004KT 24/12 A2994 RMK A01 T02370123  RH  049%=      5-min Rain = 0
KPD2 130305Z 14004KT 24/12 A2994 RMK A01 T02360122  RH  049%=      5-min Rain = 0
KPD2 130306Z 14004KT 24/12 A2994 RMK A01 T02360122  RH  049%=      5-min Rain = 0
KPD2 130307Z 14004KT 24/12 A2994 RMK A01 T02360121  RH  049%=      5-min Rain = 0
KPD2 130308Z 13004KT 24/12 A2994 RMK A01 T02360122  RH  049%=      5-min Rain = 0
KPD2 130309Z 13004KT 24/12 A2994 RMK A01 T02360122  RH  049%=      5-min Rain = 0
KPD2 130310Z 13003KT 24/12 A2994 RMK A01 T02360122  RH  049%=      5-min Rain = 0
KPD2 130311Z 13004KT 24/12 A2994 RMK A01 T02360122  RH  049%=      5-min Rain = 0
KPD2 130312Z 14004KT 24/12 A2994 RMK A01 T02350122  RH  049%=      5-min Rain = 0
KPD2 130313Z 14003KT 23/12 A2994 RMK A01 T02340122  RH  049%=      5-min Rain = 0
KPD2 130314Z 14003KT 23/12 A2994 RMK A01 T02340122  RH  049%=      5-min Rain = 0
KPD2 130315Z 14003KT 23/12 A2994 RMK A01 T02340122  RH  049%=      5-min Rain = 0
KPD2 130316Z 14004KT 23/12 A2994 RMK A01 T02330122  RH  049%=      5-min Rain = 0
KPD2 130317Z 13004KT 23/12 A2994 RMK A01 T02330122  RH  050%=      5-min Rain = 0
KPD2 130318Z 12003KT 23/12 A2994 RMK A01 T02320121  RH  050%=      5-min Rain = 0
KPD2 130319Z 13003KT 23/12 A2994 RMK A01 T02310121  RH  050%=      5-min Rain = 0
KPD2 130320Z 12004KT 23/12 A2994 RMK A01 T02310121  RH  050%=      5-min Rain = 0
KPD2 130321Z 13004KT 23/12 A2994 RMK A01 T02310121  RH  050%=      5-min Rain = 0
KPD2 130322Z 12003KT 23/12 A2994 RMK A01 T02310121  RH  050%=      5-min Rain = 0
KPD2 130323Z 13003KT 23/12 A2994 RMK A01 T02310121  RH  050%=      5-min Rain = 0
KPD2 130324Z 12004KT 23/12 A2994 RMK A01 T02300121  RH  050%=      5-min Rain = 0
KPD2 130325Z 13004KT 23/12 A2994 RMK A01 T02300121  RH  050%=      5-min Rain = 0
KPD2 130326Z 13004KT 23/12 A2994 RMK A01 T02300121  RH  050%=      5-min Rain = 0
KPD2 130327Z 13004KT 23/12 A2994 RMK A01 T02300121  RH  050%=      5-min Rain = 0
KPD2 130328Z 13004KT 23/12 A2994 RMK A01 T02300120  RH  050%=      5-min Rain = 0
KPD2 130329Z 13004KT 23/12 A2994 RMK A01 T02300120  RH  050%=      5-min Rain = 0
KPD2 130330Z 12004KT 23/12 A2994 RMK A01 T02300121  RH  050%=      5-min Rain = 0
KPD2 130331Z 12003KT 23/12 A2994 RMK A01 T02290121  RH  050%=      5-min Rain = 0
KPD2 130332Z 12002KT 23/12 A2994 RMK A01 T02300121  RH  050%=      5-min Rain = 0
KPD2 130333Z 12003KT 23/12 A2994 RMK A01 T02300121  RH  050%=      5-min Rain = 0
KPD2 130334Z 13003KT 23/12 A2994 RMK A01 T02290120  RH  050%=      5-min Rain = 0
KPD2 130335Z 12004KT 23/12 A2994 RMK A01 T02290120  RH  050%=      5-min Rain = 0
KPD2 130336Z 13004KT 23/12 A2994 RMK A01 T02290119  RH  050%=      5-min Rain = 0
KPD2 130337Z 12004KT 23/12 A2994 RMK A01 T02290120  RH  050%=      5-min Rain = 0
KPD2 130338Z 13003KT 23/12 A2994 RMK A01 T02290120  RH  050%=      5-min Rain = 0
KPD2 130339Z 13004KT 23/12 A2994 RMK A01 T02290120  RH  050%=      5-min Rain = 0
KPD2 130340Z 13004KT 23/12 A2994 RMK A01 T02290121  RH  050%=      5-min Rain = 0
KPD2 130341Z 13004KT 23/12 A2994 RMK A01 T02290120  RH  050%=      5-min Rain = 0
KPD2 130342Z 13005KT 23/12 A2994 RMK A01 T02290120  RH  050%=      5-min Rain = 0
KPD2 130343Z 13004KT 23/12 A2994 RMK A01 T02290120  RH  050%=      5-min Rain = 0
KPD2 130344Z 14004KT 23/12 A2994 RMK A01 T02290120  RH  050%=      5-min Rain = 0
KPD2 130345Z 14003KT 23/12 A2994 RMK A01 T02290120  RH  050%=      5-min Rain = 0
KPD2 130346Z 14003KT 23/12 A2994 RMK A01 T02290120  RH  050%=      5-min Rain = 0
KPD2 130347Z 14003KT 23/12 A2994 RMK A01 T02290120  RH  050%=      5-min Rain = 0
KPD2 130348Z 14003KT 23/12 A2994 RMK A01 T02280120  RH  051%=      5-min Rain = 0
KPD2 130349Z 14003KT 23/12 A2994 RMK A01 T02280120  RH  051%=      5-min Rain = 0
KPD2 130350Z 13003KT 23/12 A2994 RMK A01 T02270120  RH  051%=      5-min Rain = 0
KPD2 130351Z 14003KT 23/12 A2994 RMK A01 T02270120  RH  051%=      5-min Rain = 0
KPD2 130352Z 15002KT 23/12 A2994 RMK A01 T02260120  RH  051%=      5-min Rain = 0
KPD2 130353Z 13003KT 23/12 A2994 RMK A01 T02260120  RH  051%=      5-min Rain = 0
KPD2 130354Z 13003KT 23/12 A2994 RMK A01 T02250120  RH  051%=      5-min Rain = 0
KPD2 130355Z 13002KT 23/12 A2994 RMK A01 T02250120  RH  051%=      5-min Rain = 0
KPD2 130356Z 13003KT 23/12 A2994 RMK A01 T02250120  RH  051%=      5-min Rain = 0
KPD2 130357Z 13003KT 22/12 A2994 RMK A01 T02240120  RH  052%=      5-min Rain = 0
KPD2 130358Z 14003KT 22/12 A2994 RMK A01 T02240120  RH  052%=      5-min Rain = 0
KPD2 130359Z 14003KT 22/12 A2994 RMK A01 T02240119  RH  052%=      5-min Rain = 0
KPD2 130400Z 15003KT 22/12 A2995 RMK A01 T02240120  RH  052%=      5-min Rain = 0
KPD2 130401Z 14003KT 22/12 A2995 RMK A01 T02230119  RH  052%=      5-min Rain = 0
KPD2 130402Z 15003KT 22/12 A2995 RMK A01 T02230118  RH  051%=      5-min Rain = 0
KPD2 130403Z 14003KT 22/12 A2995 RMK A01 T02230119  RH  052%=      5-min Rain = 0
KPD2 130404Z 14002KT 22/12 A2995 RMK A01 T02230119  RH  052%=      5-min Rain = 0
KPD2 130405Z 12002KT 22/12 A2995 RMK A01 T02220119  RH  052%=      5-min Rain = 0
KPD2 130406Z 12003KT 22/12 A2995 RMK A01 T02220119  RH  052%=      5-min Rain = 0
KPD2 130407Z 12003KT 22/12 A2995 RMK A01 T02210119  RH  052%=      5-min Rain = 0
KPD2 130408Z 12003KT 22/12 A2995 RMK A01 T02200119  RH  053%=      5-min Rain = 0
KPD2 130409Z 12003KT 22/12 A2995 RMK A01 T02200119  RH  053%=      5-min Rain = 0
KPD2 130410Z 13003KT 22/12 A2995 RMK A01 T02190119  RH  053%=      5-min Rain = 0
KPD2 130411Z 14003KT 22/12 A2995 RMK A01 T02190118  RH  053%=      5-min Rain = 0
KPD2 130412Z 14003KT 22/12 A2995 RMK A01 T02180118  RH  053%=      5-min Rain = 0
KPD2 130413Z 16002KT 22/12 A2995 RMK A01 T02180118  RH  053%=      5-min Rain = 0
KPD2 130414Z 16001KT 22/12 A2995 RMK A01 T02170119  RH  053%=      5-min Rain = 0
KPD2 130415Z 17001KT 22/12 A2995 RMK A01 T02170119  RH  054%=      5-min Rain = 0
KPD2 130416Z 16002KT 22/12 A2995 RMK A01 T02170120  RH  054%=      5-min Rain = 0
KPD2 130417Z 15001KT 22/12 A2995 RMK A01 T02160119  RH  054%=      5-min Rain = 0
KPD2 130418Z 14001KT 22/12 A2995 RMK A01 T02150119  RH  054%=      5-min Rain = 0
KPD2 130419Z 12001KT 22/12 A2995 RMK A01 T02150119  RH  054%=      5-min Rain = 0
KPD2 130420Z 12001KT 22/12 A2995 RMK A01 T02150119  RH  054%=      5-min Rain = 0
KPD2 130421Z 13002KT 21/12 A2995 RMK A01 T02140117  RH  054%=      5-min Rain = 0
KPD2 130422Z 12002KT 22/12 A2995 RMK A01 T02150117  RH  054%=      5-min Rain = 0
KPD2 130423Z 12002KT 22/12 A2995 RMK A01 T02150117  RH  054%=      5-min Rain = 0
KPD2 130424Z 13002KT 22/12 A2995 RMK A01 T02150117  RH  054%=      5-min Rain = 0
KPD2 130425Z 12002KT 22/12 A2995 RMK A01 T02150117  RH  054%=      5-min Rain = 0
KPD2 130426Z 11002KT 22/12 A2995 RMK A01 T02150117  RH  053%=      5-min Rain = 0
KPD2 130427Z 11002KT 22/12 A2995 RMK A01 T02160117  RH  053%=      5-min Rain = 0
KPD2 130428Z 12003KT 22/12 A2995 RMK A01 T02160118  RH  053%=      5-min Rain = 0
KPD2 130429Z 11003KT 22/12 A2995 RMK A01 T02160117  RH  053%=      5-min Rain = 0
KPD2 130430Z 11003KT 22/12 A2995 RMK A01 T02160117  RH  053%=      5-min Rain = 0
KPD2 130431Z 11003KT 22/12 A2995 RMK A01 T02170117  RH  053%=      5-min Rain = 0
KPD2 130432Z 11003KT 22/12 A2995 RMK A01 T02170117  RH  053%=      5-min Rain = 0
KPD2 130433Z 11002KT 22/12 A2995 RMK A01 T02170118  RH  053%=      5-min Rain = 0
KPD2 130434Z 11003KT 22/12 A2995 RMK A01 T02170117  RH  053%=      5-min Rain = 0
KPD2 130435Z 12002KT 22/12 A2995 RMK A01 T02170117  RH  053%=      5-min Rain = 0
KPD2 130436Z 11002KT 22/12 A2995 RMK A01 T02170117  RH  053%=      5-min Rain = 0
KPD2 130437Z 11002KT 22/12 A2995 RMK A01 T02170117  RH  053%=      5-min Rain = 0
KPD2 130438Z 11002KT 22/12 A2995 RMK A01 T02170117  RH  053%=      5-min Rain = 0
KPD2 130439Z 16001KT 22/12 A2995 RMK A01 T02170118  RH  053%=      5-min Rain = 0
KPD2 130440Z 14002KT 22/12 A2995 RMK A01 T02150119  RH  054%=      5-min Rain = 0
KPD2 130441Z 14002KT 21/12 A2995 RMK A01 T02140118  RH  054%=      5-min Rain = 0
KPD2 130442Z 15002KT 21/12 A2995 RMK A01 T02140118  RH  055%=      5-min Rain = 0
KPD2 130443Z 17002KT 21/12 A2995 RMK A01 T02120118  RH  055%=      5-min Rain = 0
KPD2 130444Z 17002KT 21/12 A2995 RMK A01 T02110119  RH  055%=      5-min Rain = 0
KPD2 130445Z 16002KT 21/12 A2995 RMK A01 T02110119  RH  056%=      5-min Rain = 0
KPD2 130446Z 16001KT 21/12 A2995 RMK A01 T02100119  RH  056%=      5-min Rain = 0
KPD2 130447Z 16001KT 21/12 A2995 RMK A01 T02100119  RH  056%=      5-min Rain = 0
KPD2 130448Z 16001KT 21/12 A2995 RMK A01 T02100118  RH  056%=      5-min Rain = 0
KPD2 130449Z 17001KT 21/12 A2995 RMK A01 T02090118  RH  056%=      5-min Rain = 0
KPD2 130450Z 18001KT 21/12 A2995 RMK A01 T02090118  RH  056%=      5-min Rain = 0
KPD2 130451Z 18001KT 21/12 A2995 RMK A01 T02090118  RH  056%=      5-min Rain = 0
KPD2 130452Z 18001KT 21/12 A2995 RMK A01 T02080118  RH  056%=      5-min Rain = 0
KPD2 130453Z 18001KT 21/12 A2995 RMK A01 T02080118  RH  056%=      5-min Rain = 0
KPD2 130454Z 19000KT 21/12 A2995 RMK A01 T02070120  RH  057%=      5-min Rain = 0
KPD2 130455Z 00000KT 21/12 A2995 RMK A01 T02060120  RH  058%=      5-min Rain = 0
KPD2 130456Z 00000KT 20/12 A2995 RMK A01 T02040119  RH  058%=      5-min Rain = 0
KPD2 130457Z 00000KT 20/12 A2995 RMK A01 T02030120  RH  059%=      5-min Rain = 0
KPD2 130458Z 00000KT 20/12 A2995 RMK A01 T02020120  RH  059%=      5-min Rain = 0
KPD2 130459Z 09000KT 20/12 A2995 RMK A01 T02000120  RH  060%=      5-min Rain = 0

Page generated in 0.1597 seconds.